<?xml version="1.0" encoding="UTF-8" standalone="no" ?>
<gpx xmlns="http://www.topografix.com/GPX/1/1" xmlns:xsi="http://www.w3.org/2001/XMLSchema-instance" xsi:schemaLocation="http://www.topografix.com/GPX/1/1 http://www.topografix.com/GPX/1/1/gpx.xsd" version="1.1" creator="VisuGPX - https://www.visugpx.com">
  <metadata>
    <name>2025-02-06-46-La Rozière</name>
    <desc><![CDATA[Randonnée de 11 km pour environ 250 m de dénivelé positif . De beaux chemins de crête, un sentier le long du ruisseau le Bartassec , des hameaux sympathiques, une vue sur le château de Labastide Marnhac]]></desc>
  </metadata>
  <trk>
    <name><![CDATA[La Rozière]]></name>
    <extensions>
      <line xmlns="http://www.topografix.com/GPX/gpx_style/0/2">
        <color>0000FF</color>
        <width>4</width>
      </line>
    </extensions>
    <trkseg>
      <trkpt lat="44.41577" lon="1.41854">
        <ele>214.51123046875</ele>
        <time>2025-01-31T13:01:50Z</time>
      </trkpt>
      <trkpt lat="44.41589" lon="1.41857">
        <ele>214.99194335938</ele>
        <time>2025-01-31T13:02:06Z</time>
      </trkpt>
      <trkpt lat="44.41605" lon="1.41862">
        <ele>215.95324707031</ele>
        <time>2025-01-31T13:02:20Z</time>
      </trkpt>
      <trkpt lat="44.41617" lon="1.41866">
        <ele>216.43395996094</ele>
        <time>2025-01-31T13:02:33Z</time>
      </trkpt>
      <trkpt lat="44.41626" lon="1.41869">
        <ele>216.43395996094</ele>
        <time>2025-01-31T13:02:42Z</time>
      </trkpt>
      <trkpt lat="44.41628" lon="1.41869">
        <ele>216.43395996094</ele>
        <time>2025-01-31T13:02:44Z</time>
      </trkpt>
      <trkpt lat="44.41634" lon="1.41868">
        <ele>216.43395996094</ele>
        <time>2025-01-31T13:02:49Z</time>
      </trkpt>
      <trkpt lat="44.41643" lon="1.4187">
        <ele>216.43395996094</ele>
        <time>2025-01-31T13:03:02Z</time>
      </trkpt>
      <trkpt lat="44.41662" lon="1.41865">
        <ele>217.39538574219</ele>
        <time>2025-01-31T13:03:20Z</time>
      </trkpt>
      <trkpt lat="44.41677" lon="1.41865">
        <ele>217.8759765625</ele>
        <time>2025-01-31T13:03:31Z</time>
      </trkpt>
      <trkpt lat="44.41691" lon="1.41863">
        <ele>218.35656738281</ele>
        <time>2025-01-31T13:03:47Z</time>
      </trkpt>
      <trkpt lat="44.41711" lon="1.41868">
        <ele>218.83728027344</ele>
        <time>2025-01-31T13:04:05Z</time>
      </trkpt>
      <trkpt lat="44.41725" lon="1.41878">
        <ele>218.83728027344</ele>
        <time>2025-01-31T13:04:19Z</time>
      </trkpt>
      <trkpt lat="44.41737" lon="1.41894">
        <ele>218.83728027344</ele>
        <time>2025-01-31T13:04:35Z</time>
      </trkpt>
      <trkpt lat="44.4175" lon="1.41921">
        <ele>218.83728027344</ele>
        <time>2025-01-31T13:04:56Z</time>
      </trkpt>
      <trkpt lat="44.41759" lon="1.41945">
        <ele>218.83728027344</ele>
        <time>2025-01-31T13:05:13Z</time>
      </trkpt>
      <trkpt lat="44.41762" lon="1.41957">
        <ele>217.39538574219</ele>
        <time>2025-01-31T13:05:21Z</time>
      </trkpt>
      <trkpt lat="44.41768" lon="1.41977">
        <ele>217.39538574219</ele>
        <time>2025-01-31T13:05:36Z</time>
      </trkpt>
      <trkpt lat="44.41769" lon="1.41978">
        <ele>217.39538574219</ele>
        <time>2025-01-31T13:05:39Z</time>
      </trkpt>
      <trkpt lat="44.4177" lon="1.42012">
        <ele>217.39538574219</ele>
        <time>2025-01-31T13:05:58Z</time>
      </trkpt>
      <trkpt lat="44.41774" lon="1.42037">
        <ele>218.35656738281</ele>
        <time>2025-01-31T13:06:16Z</time>
      </trkpt>
      <trkpt lat="44.41776" lon="1.42039">
        <ele>218.35656738281</ele>
        <time>2025-01-31T13:06:21Z</time>
      </trkpt>
      <trkpt lat="44.4178" lon="1.42047">
        <ele>218.35656738281</ele>
        <time>2025-01-31T13:06:27Z</time>
      </trkpt>
      <trkpt lat="44.4179" lon="1.42065">
        <ele>218.35656738281</ele>
        <time>2025-01-31T13:06:41Z</time>
      </trkpt>
      <trkpt lat="44.41796" lon="1.4208">
        <ele>220.27917480469</ele>
        <time>2025-01-31T13:06:50Z</time>
      </trkpt>
      <trkpt lat="44.4179" lon="1.42105">
        <ele>221.24060058594</ele>
        <time>2025-01-31T13:07:06Z</time>
      </trkpt>
      <trkpt lat="44.41784" lon="1.4213">
        <ele>221.24060058594</ele>
        <time>2025-01-31T13:07:20Z</time>
      </trkpt>
      <trkpt lat="44.41781" lon="1.42141">
        <ele>221.24060058594</ele>
        <time>2025-01-31T13:07:27Z</time>
      </trkpt>
      <trkpt lat="44.41781" lon="1.42152">
        <ele>221.24060058594</ele>
        <time>2025-01-31T13:07:33Z</time>
      </trkpt>
      <trkpt lat="44.41776" lon="1.42172">
        <ele>222.20178222656</ele>
        <time>2025-01-31T13:07:47Z</time>
      </trkpt>
      <trkpt lat="44.41773" lon="1.42184">
        <ele>222.68249511719</ele>
        <time>2025-01-31T13:07:56Z</time>
      </trkpt>
      <trkpt lat="44.41773" lon="1.4219">
        <ele>222.68249511719</ele>
        <time>2025-01-31T13:08:00Z</time>
      </trkpt>
      <trkpt lat="44.41769" lon="1.42215">
        <ele>222.68249511719</ele>
        <time>2025-01-31T13:08:16Z</time>
      </trkpt>
      <trkpt lat="44.41768" lon="1.42218">
        <ele>222.68249511719</ele>
        <time>2025-01-31T13:08:18Z</time>
      </trkpt>
      <trkpt lat="44.41766" lon="1.42238">
        <ele>222.68249511719</ele>
        <time>2025-01-31T13:08:30Z</time>
      </trkpt>
      <trkpt lat="44.41766" lon="1.42253">
        <ele>222.68249511719</ele>
        <time>2025-01-31T13:08:38Z</time>
      </trkpt>
      <trkpt lat="44.41766" lon="1.42257">
        <ele>222.68249511719</ele>
        <time>2025-01-31T13:08:40Z</time>
      </trkpt>
      <trkpt lat="44.41766" lon="1.42273">
        <ele>223.16320800781</ele>
        <time>2025-01-31T13:08:49Z</time>
      </trkpt>
      <trkpt lat="44.41766" lon="1.42283">
        <ele>223.64379882812</ele>
        <time>2025-01-31T13:08:55Z</time>
      </trkpt>
      <trkpt lat="44.41768" lon="1.4229">
        <ele>223.64379882812</ele>
        <time>2025-01-31T13:08:59Z</time>
      </trkpt>
      <trkpt lat="44.41769" lon="1.42306">
        <ele>223.64379882812</ele>
        <time>2025-01-31T13:09:08Z</time>
      </trkpt>
      <trkpt lat="44.41773" lon="1.42341">
        <ele>224.60522460938</ele>
        <time>2025-01-31T13:09:28Z</time>
      </trkpt>
      <trkpt lat="44.41773" lon="1.42352">
        <ele>224.60522460938</ele>
        <time>2025-01-31T13:09:35Z</time>
      </trkpt>
      <trkpt lat="44.41771" lon="1.42361">
        <ele>224.60522460938</ele>
        <time>2025-01-31T13:09:41Z</time>
      </trkpt>
      <trkpt lat="44.41765" lon="1.42383">
        <ele>224.60522460938</ele>
        <time>2025-01-31T13:09:56Z</time>
      </trkpt>
      <trkpt lat="44.41763" lon="1.42395">
        <ele>224.60522460938</ele>
        <time>2025-01-31T13:10:08Z</time>
      </trkpt>
      <trkpt lat="44.41761" lon="1.42399">
        <ele>224.60522460938</ele>
        <time>2025-01-31T13:10:11Z</time>
      </trkpt>
      <trkpt lat="44.41759" lon="1.42407">
        <ele>223.16320800781</ele>
        <time>2025-01-31T13:10:17Z</time>
      </trkpt>
      <trkpt lat="44.41754" lon="1.42418">
        <ele>223.16320800781</ele>
        <time>2025-01-31T13:10:25Z</time>
      </trkpt>
      <trkpt lat="44.41747" lon="1.42432">
        <ele>222.20178222656</ele>
        <time>2025-01-31T13:10:34Z</time>
      </trkpt>
      <trkpt lat="44.41744" lon="1.42439">
        <ele>222.20178222656</ele>
        <time>2025-01-31T13:10:38Z</time>
      </trkpt>
      <trkpt lat="44.41739" lon="1.42465">
        <ele>221.24060058594</ele>
        <time>2025-01-31T13:10:54Z</time>
      </trkpt>
      <trkpt lat="44.41734" lon="1.42493">
        <ele>221.24060058594</ele>
        <time>2025-01-31T13:11:11Z</time>
      </trkpt>
      <trkpt lat="44.41729" lon="1.42516">
        <ele>220.75988769531</ele>
        <time>2025-01-31T13:11:25Z</time>
      </trkpt>
      <trkpt lat="44.41724" lon="1.42542">
        <ele>220.75988769531</ele>
        <time>2025-01-31T13:11:38Z</time>
      </trkpt>
      <trkpt lat="44.41723" lon="1.42548">
        <ele>220.27917480469</ele>
        <time>2025-01-31T13:11:42Z</time>
      </trkpt>
      <trkpt lat="44.41719" lon="1.42577">
        <ele>219.79858398438</ele>
        <time>2025-01-31T13:11:59Z</time>
      </trkpt>
      <trkpt lat="44.41718" lon="1.42608">
        <ele>219.31799316406</ele>
        <time>2025-01-31T13:12:16Z</time>
      </trkpt>
      <trkpt lat="44.41714" lon="1.42634">
        <ele>219.31799316406</ele>
        <time>2025-01-31T13:12:32Z</time>
      </trkpt>
      <trkpt lat="44.41712" lon="1.42664">
        <ele>219.31799316406</ele>
        <time>2025-01-31T13:12:50Z</time>
      </trkpt>
      <trkpt lat="44.41713" lon="1.42673">
        <ele>219.31799316406</ele>
        <time>2025-01-31T13:12:54Z</time>
      </trkpt>
      <trkpt lat="44.41718" lon="1.42694">
        <ele>217.8759765625</ele>
        <time>2025-01-31T13:13:08Z</time>
      </trkpt>
      <trkpt lat="44.41716" lon="1.42709">
        <ele>217.39538574219</ele>
        <time>2025-01-31T13:13:21Z</time>
      </trkpt>
      <trkpt lat="44.41714" lon="1.4273">
        <ele>217.39538574219</ele>
        <time>2025-01-31T13:13:36Z</time>
      </trkpt>
      <trkpt lat="44.41712" lon="1.42742">
        <ele>216.91467285156</ele>
        <time>2025-01-31T13:13:46Z</time>
      </trkpt>
      <trkpt lat="44.4171" lon="1.42762">
        <ele>215.47265625</ele>
        <time>2025-01-31T13:14:01Z</time>
      </trkpt>
      <trkpt lat="44.41705" lon="1.42779">
        <ele>214.51123046875</ele>
        <time>2025-01-31T13:14:15Z</time>
      </trkpt>
      <trkpt lat="44.41703" lon="1.42785">
        <ele>214.03063964844</ele>
        <time>2025-01-31T13:14:20Z</time>
      </trkpt>
      <trkpt lat="44.41699" lon="1.42798">
        <ele>211.62744140625</ele>
        <time>2025-01-31T13:14:33Z</time>
      </trkpt>
      <trkpt lat="44.41698" lon="1.42803">
        <ele>210.18542480469</ele>
        <time>2025-01-31T13:14:38Z</time>
      </trkpt>
      <trkpt lat="44.41693" lon="1.42818">
        <ele>207.30139160156</ele>
        <time>2025-01-31T13:14:52Z</time>
      </trkpt>
      <trkpt lat="44.4169" lon="1.42828">
        <ele>204.89807128906</ele>
        <time>2025-01-31T13:15:02Z</time>
      </trkpt>
      <trkpt lat="44.41685" lon="1.42839">
        <ele>201.53356933594</ele>
        <time>2025-01-31T13:15:15Z</time>
      </trkpt>
      <trkpt lat="44.41676" lon="1.42853">
        <ele>198.64953613281</ele>
        <time>2025-01-31T13:15:31Z</time>
      </trkpt>
      <trkpt lat="44.41676" lon="1.42855">
        <ele>197.68823242188</ele>
        <time>2025-01-31T13:15:38Z</time>
      </trkpt>
      <trkpt lat="44.41671" lon="1.42867">
        <ele>195.765625</ele>
        <time>2025-01-31T13:15:50Z</time>
      </trkpt>
      <trkpt lat="44.41669" lon="1.42874">
        <ele>194.80432128906</ele>
        <time>2025-01-31T13:15:55Z</time>
      </trkpt>
      <trkpt lat="44.41664" lon="1.42889">
        <ele>191.92028808594</ele>
        <time>2025-01-31T13:16:09Z</time>
      </trkpt>
      <trkpt lat="44.41658" lon="1.42908">
        <ele>189.99768066406</ele>
        <time>2025-01-31T13:16:23Z</time>
      </trkpt>
      <trkpt lat="44.41658" lon="1.42918">
        <ele>189.99768066406</ele>
        <time>2025-01-31T13:16:37Z</time>
      </trkpt>
      <trkpt lat="44.41658" lon="1.42927">
        <ele>189.03637695312</ele>
        <time>2025-01-31T13:16:52Z</time>
      </trkpt>
      <trkpt lat="44.41658" lon="1.4293">
        <ele>189.03637695312</ele>
        <time>2025-01-31T13:16:55Z</time>
      </trkpt>
      <trkpt lat="44.41661" lon="1.42938">
        <ele>188.55578613281</ele>
        <time>2025-01-31T13:17:03Z</time>
      </trkpt>
      <trkpt lat="44.41661" lon="1.42955">
        <ele>188.55578613281</ele>
        <time>2025-01-31T13:17:18Z</time>
      </trkpt>
      <trkpt lat="44.41659" lon="1.42956">
        <ele>188.55578613281</ele>
        <time>2025-01-31T13:17:21Z</time>
      </trkpt>
      <trkpt lat="44.41645" lon="1.42948">
        <ele>185.67175292969</ele>
        <time>2025-01-31T13:17:38Z</time>
      </trkpt>
      <trkpt lat="44.41635" lon="1.42938">
        <ele>185.67175292969</ele>
        <time>2025-01-31T13:17:54Z</time>
      </trkpt>
      <trkpt lat="44.41615" lon="1.42918">
        <ele>183.7490234375</ele>
        <time>2025-01-31T13:18:13Z</time>
      </trkpt>
      <trkpt lat="44.41591" lon="1.42908">
        <ele>181.82641601562</ele>
        <time>2025-01-31T13:18:30Z</time>
      </trkpt>
      <trkpt lat="44.41578" lon="1.42908">
        <ele>180.38452148438</ele>
        <time>2025-01-31T13:18:42Z</time>
      </trkpt>
      <trkpt lat="44.41557" lon="1.42909">
        <ele>176.53930664062</ele>
        <time>2025-01-31T13:18:59Z</time>
      </trkpt>
      <trkpt lat="44.4154" lon="1.42904">
        <ele>174.13586425781</ele>
        <time>2025-01-31T13:19:15Z</time>
      </trkpt>
      <trkpt lat="44.41525" lon="1.42899">
        <ele>171.25207519531</ele>
        <time>2025-01-31T13:19:29Z</time>
      </trkpt>
      <trkpt lat="44.41509" lon="1.42893">
        <ele>168.36804199219</ele>
        <time>2025-01-31T13:19:45Z</time>
      </trkpt>
      <trkpt lat="44.41492" lon="1.42874">
        <ele>165.48413085938</ele>
        <time>2025-01-31T13:20:04Z</time>
      </trkpt>
      <trkpt lat="44.41477" lon="1.42863">
        <ele>163.08081054688</ele>
        <time>2025-01-31T13:20:19Z</time>
      </trkpt>
      <trkpt lat="44.41469" lon="1.42858">
        <ele>161.63891601562</ele>
        <time>2025-01-31T13:20:27Z</time>
      </trkpt>
      <trkpt lat="44.41456" lon="1.42845">
        <ele>159.71618652344</ele>
        <time>2025-01-31T13:20:41Z</time>
      </trkpt>
      <trkpt lat="44.41442" lon="1.42835">
        <ele>157.79357910156</ele>
        <time>2025-01-31T13:20:56Z</time>
      </trkpt>
      <trkpt lat="44.4144" lon="1.42835">
        <ele>157.79357910156</ele>
        <time>2025-01-31T13:20:57Z</time>
      </trkpt>
      <trkpt lat="44.41432" lon="1.42832">
        <ele>156.83215332031</ele>
        <time>2025-01-31T13:21:04Z</time>
      </trkpt>
      <trkpt lat="44.41414" lon="1.42815">
        <ele>154.90954589844</ele>
        <time>2025-01-31T13:21:22Z</time>
      </trkpt>
      <trkpt lat="44.41398" lon="1.42791">
        <ele>153.94836425781</ele>
        <time>2025-01-31T13:21:40Z</time>
      </trkpt>
      <trkpt lat="44.41387" lon="1.42787">
        <ele>153.94836425781</ele>
        <time>2025-01-31T13:21:50Z</time>
      </trkpt>
      <trkpt lat="44.4138" lon="1.42792">
        <ele>153.94836425781</ele>
        <time>2025-01-31T13:21:57Z</time>
      </trkpt>
      <trkpt lat="44.4137" lon="1.42822">
        <ele>152.50634765625</ele>
        <time>2025-01-31T13:22:16Z</time>
      </trkpt>
      <trkpt lat="44.41367" lon="1.42827">
        <ele>152.02575683594</ele>
        <time>2025-01-31T13:22:20Z</time>
      </trkpt>
      <trkpt lat="44.41365" lon="1.42832">
        <ele>152.02575683594</ele>
        <time>2025-01-31T13:22:24Z</time>
      </trkpt>
      <trkpt lat="44.41354" lon="1.42855">
        <ele>150.10302734375</ele>
        <time>2025-01-31T13:22:41Z</time>
      </trkpt>
      <trkpt lat="44.41339" lon="1.42882">
        <ele>149.1416015625</ele>
        <time>2025-01-31T13:23:00Z</time>
      </trkpt>
      <trkpt lat="44.41321" lon="1.42896">
        <ele>147.21899414062</ele>
        <time>2025-01-31T13:23:14Z</time>
      </trkpt>
      <trkpt lat="44.41319" lon="1.42897">
        <ele>147.21899414062</ele>
        <time>2025-01-31T13:23:15Z</time>
      </trkpt>
      <trkpt lat="44.41318" lon="1.42897">
        <ele>147.21899414062</ele>
        <time>2025-01-31T13:23:16Z</time>
      </trkpt>
      <trkpt lat="44.41317" lon="1.42898">
        <ele>146.73840332031</ele>
        <time>2025-01-31T13:23:17Z</time>
      </trkpt>
      <trkpt lat="44.41302" lon="1.42891">
        <ele>145.77709960938</ele>
        <time>2025-01-31T13:23:30Z</time>
      </trkpt>
      <trkpt lat="44.41289" lon="1.42866">
        <ele>145.29638671875</ele>
        <time>2025-01-31T13:23:47Z</time>
      </trkpt>
      <trkpt lat="44.41279" lon="1.42839">
        <ele>145.29638671875</ele>
        <time>2025-01-31T13:24:04Z</time>
      </trkpt>
      <trkpt lat="44.41271" lon="1.4281">
        <ele>145.29638671875</ele>
        <time>2025-01-31T13:24:23Z</time>
      </trkpt>
      <trkpt lat="44.41265" lon="1.42782">
        <ele>145.29638671875</ele>
        <time>2025-01-31T13:24:40Z</time>
      </trkpt>
      <trkpt lat="44.41257" lon="1.42756">
        <ele>145.29638671875</ele>
        <time>2025-01-31T13:25:00Z</time>
      </trkpt>
      <trkpt lat="44.41255" lon="1.4276">
        <ele>145.29638671875</ele>
        <time>2025-01-31T13:25:19Z</time>
      </trkpt>
      <trkpt lat="44.4124" lon="1.42744">
        <ele>145.29638671875</ele>
        <time>2025-01-31T13:25:35Z</time>
      </trkpt>
      <trkpt lat="44.41232" lon="1.42718">
        <ele>145.29638671875</ele>
        <time>2025-01-31T13:25:52Z</time>
      </trkpt>
      <trkpt lat="44.41218" lon="1.42692">
        <ele>145.29638671875</ele>
        <time>2025-01-31T13:26:12Z</time>
      </trkpt>
      <trkpt lat="44.412" lon="1.42676">
        <ele>145.77709960938</ele>
        <time>2025-01-31T13:26:30Z</time>
      </trkpt>
      <trkpt lat="44.41199" lon="1.42675">
        <ele>145.77709960938</ele>
        <time>2025-01-31T13:26:31Z</time>
      </trkpt>
      <trkpt lat="44.41197" lon="1.4267">
        <ele>145.77709960938</ele>
        <time>2025-01-31T13:26:39Z</time>
      </trkpt>
      <trkpt lat="44.41174" lon="1.42662">
        <ele>146.73840332031</ele>
        <time>2025-01-31T13:26:58Z</time>
      </trkpt>
      <trkpt lat="44.41172" lon="1.42661">
        <ele>146.73840332031</ele>
        <time>2025-01-31T13:27:00Z</time>
      </trkpt>
      <trkpt lat="44.41161" lon="1.42649">
        <ele>146.73840332031</ele>
        <time>2025-01-31T13:27:14Z</time>
      </trkpt>
      <trkpt lat="44.41144" lon="1.42643">
        <ele>147.69970703125</ele>
        <time>2025-01-31T13:27:29Z</time>
      </trkpt>
      <trkpt lat="44.41132" lon="1.42635">
        <ele>147.69970703125</ele>
        <time>2025-01-31T13:27:40Z</time>
      </trkpt>
      <trkpt lat="44.41133" lon="1.42623">
        <ele>148.18041992188</ele>
        <time>2025-01-31T13:27:49Z</time>
      </trkpt>
      <trkpt lat="44.41137" lon="1.42612">
        <ele>149.1416015625</ele>
        <time>2025-01-31T13:28:04Z</time>
      </trkpt>
      <trkpt lat="44.41137" lon="1.42615">
        <ele>149.1416015625</ele>
        <time>2025-01-31T13:28:31Z</time>
      </trkpt>
      <trkpt lat="44.41137" lon="1.42615">
        <ele>149.1416015625</ele>
        <time>2025-01-31T13:28:44Z</time>
      </trkpt>
      <trkpt lat="44.41138" lon="1.42608">
        <ele>150.58361816406</ele>
        <time>2025-01-31T13:28:56Z</time>
      </trkpt>
      <trkpt lat="44.41138" lon="1.42601">
        <ele>150.58361816406</ele>
        <time>2025-01-31T13:29:11Z</time>
      </trkpt>
      <trkpt lat="44.41138" lon="1.42596">
        <ele>151.544921875</ele>
        <time>2025-01-31T13:29:24Z</time>
      </trkpt>
      <trkpt lat="44.41137" lon="1.42592">
        <ele>151.544921875</ele>
        <time>2025-01-31T13:29:39Z</time>
      </trkpt>
      <trkpt lat="44.41131" lon="1.42575">
        <ele>152.98693847656</ele>
        <time>2025-01-31T13:29:54Z</time>
      </trkpt>
      <trkpt lat="44.41121" lon="1.42564">
        <ele>155.87097167969</ele>
        <time>2025-01-31T13:30:10Z</time>
      </trkpt>
      <trkpt lat="44.41109" lon="1.42546">
        <ele>158.27416992188</ele>
        <time>2025-01-31T13:30:30Z</time>
      </trkpt>
      <trkpt lat="44.41103" lon="1.42534">
        <ele>160.67749023438</ele>
        <time>2025-01-31T13:30:47Z</time>
      </trkpt>
      <trkpt lat="44.41095" lon="1.42521">
        <ele>164.04211425781</ele>
        <time>2025-01-31T13:31:05Z</time>
      </trkpt>
      <trkpt lat="44.41088" lon="1.42508">
        <ele>165.48413085938</ele>
        <time>2025-01-31T13:31:20Z</time>
      </trkpt>
      <trkpt lat="44.41085" lon="1.42499">
        <ele>166.92602539062</ele>
        <time>2025-01-31T13:31:34Z</time>
      </trkpt>
      <trkpt lat="44.41078" lon="1.42485">
        <ele>169.81005859375</ele>
        <time>2025-01-31T13:31:52Z</time>
      </trkpt>
      <trkpt lat="44.41073" lon="1.42473">
        <ele>172.21325683594</ele>
        <time>2025-01-31T13:32:06Z</time>
      </trkpt>
      <trkpt lat="44.41065" lon="1.42459">
        <ele>174.13586425781</ele>
        <time>2025-01-31T13:32:21Z</time>
      </trkpt>
      <trkpt lat="44.41054" lon="1.42447">
        <ele>177.50061035156</ele>
        <time>2025-01-31T13:32:40Z</time>
      </trkpt>
      <trkpt lat="44.41045" lon="1.42434">
        <ele>179.42321777344</ele>
        <time>2025-01-31T13:32:56Z</time>
      </trkpt>
      <trkpt lat="44.41038" lon="1.42424">
        <ele>181.34582519531</ele>
        <time>2025-01-31T13:33:12Z</time>
      </trkpt>
      <trkpt lat="44.41033" lon="1.42417">
        <ele>182.78784179688</ele>
        <time>2025-01-31T13:33:28Z</time>
      </trkpt>
      <trkpt lat="44.41023" lon="1.42408">
        <ele>185.19116210938</ele>
        <time>2025-01-31T13:33:45Z</time>
      </trkpt>
      <trkpt lat="44.41017" lon="1.42399">
        <ele>186.63317871094</ele>
        <time>2025-01-31T13:33:58Z</time>
      </trkpt>
      <trkpt lat="44.41007" lon="1.42388">
        <ele>188.07507324219</ele>
        <time>2025-01-31T13:34:13Z</time>
      </trkpt>
      <trkpt lat="44.41" lon="1.42377">
        <ele>189.99768066406</ele>
        <time>2025-01-31T13:34:29Z</time>
      </trkpt>
      <trkpt lat="44.40991" lon="1.42365">
        <ele>191.92028808594</ele>
        <time>2025-01-31T13:34:44Z</time>
      </trkpt>
      <trkpt lat="44.40985" lon="1.4236">
        <ele>193.3623046875</ele>
        <time>2025-01-31T13:34:59Z</time>
      </trkpt>
      <trkpt lat="44.40978" lon="1.42349">
        <ele>194.32373046875</ele>
        <time>2025-01-31T13:35:13Z</time>
      </trkpt>
      <trkpt lat="44.40969" lon="1.42335">
        <ele>197.20751953125</ele>
        <time>2025-01-31T13:35:29Z</time>
      </trkpt>
      <trkpt lat="44.40963" lon="1.42326">
        <ele>198.64953613281</ele>
        <time>2025-01-31T13:35:43Z</time>
      </trkpt>
      <trkpt lat="44.40956" lon="1.42313">
        <ele>200.572265625</ele>
        <time>2025-01-31T13:35:59Z</time>
      </trkpt>
      <trkpt lat="44.40953" lon="1.42309">
        <ele>201.05285644531</ele>
        <time>2025-01-31T13:36:16Z</time>
      </trkpt>
      <trkpt lat="44.40945" lon="1.42289">
        <ele>203.93688964844</ele>
        <time>2025-01-31T13:36:34Z</time>
      </trkpt>
      <trkpt lat="44.40935" lon="1.42271">
        <ele>205.85949707031</ele>
        <time>2025-01-31T13:36:52Z</time>
      </trkpt>
      <trkpt lat="44.40929" lon="1.42258">
        <ele>208.26281738281</ele>
        <time>2025-01-31T13:37:07Z</time>
      </trkpt>
      <trkpt lat="44.4092" lon="1.42243">
        <ele>210.18542480469</ele>
        <time>2025-01-31T13:37:25Z</time>
      </trkpt>
      <trkpt lat="44.40916" lon="1.4223">
        <ele>211.62744140625</ele>
        <time>2025-01-31T13:37:41Z</time>
      </trkpt>
      <trkpt lat="44.40909" lon="1.4221">
        <ele>213.0693359375</ele>
        <time>2025-01-31T13:37:58Z</time>
      </trkpt>
      <trkpt lat="44.40905" lon="1.42193">
        <ele>214.51123046875</ele>
        <time>2025-01-31T13:38:13Z</time>
      </trkpt>
      <trkpt lat="44.40899" lon="1.42176">
        <ele>215.95324707031</ele>
        <time>2025-01-31T13:38:28Z</time>
      </trkpt>
      <trkpt lat="44.40893" lon="1.42153">
        <ele>216.91467285156</ele>
        <time>2025-01-31T13:38:47Z</time>
      </trkpt>
      <trkpt lat="44.40887" lon="1.42137">
        <ele>217.8759765625</ele>
        <time>2025-01-31T13:39:04Z</time>
      </trkpt>
      <trkpt lat="44.40879" lon="1.42125">
        <ele>217.8759765625</ele>
        <time>2025-01-31T13:39:21Z</time>
      </trkpt>
      <trkpt lat="44.40872" lon="1.42111">
        <ele>218.83728027344</ele>
        <time>2025-01-31T13:39:37Z</time>
      </trkpt>
      <trkpt lat="44.40865" lon="1.42096">
        <ele>219.31799316406</ele>
        <time>2025-01-31T13:39:52Z</time>
      </trkpt>
      <trkpt lat="44.40854" lon="1.42075">
        <ele>220.27917480469</ele>
        <time>2025-01-31T13:40:09Z</time>
      </trkpt>
      <trkpt lat="44.40845" lon="1.42057">
        <ele>221.24060058594</ele>
        <time>2025-01-31T13:40:26Z</time>
      </trkpt>
      <trkpt lat="44.40837" lon="1.4204">
        <ele>220.75988769531</ele>
        <time>2025-01-31T13:40:42Z</time>
      </trkpt>
      <trkpt lat="44.4083" lon="1.42022">
        <ele>221.24060058594</ele>
        <time>2025-01-31T13:40:58Z</time>
      </trkpt>
      <trkpt lat="44.40822" lon="1.42006">
        <ele>221.24060058594</ele>
        <time>2025-01-31T13:41:12Z</time>
      </trkpt>
      <trkpt lat="44.40813" lon="1.41988">
        <ele>221.24060058594</ele>
        <time>2025-01-31T13:41:29Z</time>
      </trkpt>
      <trkpt lat="44.40806" lon="1.41973">
        <ele>221.24060058594</ele>
        <time>2025-01-31T13:41:43Z</time>
      </trkpt>
      <trkpt lat="44.40805" lon="1.41971">
        <ele>222.20178222656</ele>
        <time>2025-01-31T13:41:45Z</time>
      </trkpt>
      <trkpt lat="44.40798" lon="1.41954">
        <ele>222.20178222656</ele>
        <time>2025-01-31T13:42:00Z</time>
      </trkpt>
      <trkpt lat="44.4079" lon="1.41935">
        <ele>223.16320800781</ele>
        <time>2025-01-31T13:42:16Z</time>
      </trkpt>
      <trkpt lat="44.40782" lon="1.41913">
        <ele>224.12451171875</ele>
        <time>2025-01-31T13:42:33Z</time>
      </trkpt>
      <trkpt lat="44.40775" lon="1.41891">
        <ele>225.56652832031</ele>
        <time>2025-01-31T13:42:51Z</time>
      </trkpt>
      <trkpt lat="44.40767" lon="1.41872">
        <ele>227.48913574219</ele>
        <time>2025-01-31T13:43:08Z</time>
      </trkpt>
      <trkpt lat="44.40759" lon="1.41852">
        <ele>228.93115234375</ele>
        <time>2025-01-31T13:43:25Z</time>
      </trkpt>
      <trkpt lat="44.40751" lon="1.41833">
        <ele>231.33435058594</ele>
        <time>2025-01-31T13:43:44Z</time>
      </trkpt>
      <trkpt lat="44.40741" lon="1.41814">
        <ele>232.77648925781</ele>
        <time>2025-01-31T13:44:04Z</time>
      </trkpt>
      <trkpt lat="44.40731" lon="1.41795">
        <ele>234.21838378906</ele>
        <time>2025-01-31T13:44:22Z</time>
      </trkpt>
      <trkpt lat="44.40723" lon="1.41777">
        <ele>235.1796875</ele>
        <time>2025-01-31T13:44:40Z</time>
      </trkpt>
      <trkpt lat="44.40723" lon="1.41773">
        <ele>235.66027832031</ele>
        <time>2025-01-31T13:44:56Z</time>
      </trkpt>
      <trkpt lat="44.40714" lon="1.41765">
        <ele>235.66027832031</ele>
        <time>2025-01-31T13:45:10Z</time>
      </trkpt>
      <trkpt lat="44.40702" lon="1.4175">
        <ele>236.14099121094</ele>
        <time>2025-01-31T13:45:27Z</time>
      </trkpt>
      <trkpt lat="44.40693" lon="1.41732">
        <ele>238.06359863281</ele>
        <time>2025-01-31T13:45:46Z</time>
      </trkpt>
      <trkpt lat="44.40683" lon="1.41716">
        <ele>239.02490234375</ele>
        <time>2025-01-31T13:46:02Z</time>
      </trkpt>
      <trkpt lat="44.40666" lon="1.417">
        <ele>239.98620605469</ele>
        <time>2025-01-31T13:46:22Z</time>
      </trkpt>
      <trkpt lat="44.4065" lon="1.41688">
        <ele>241.90893554688</ele>
        <time>2025-01-31T13:46:40Z</time>
      </trkpt>
      <trkpt lat="44.40633" lon="1.41675">
        <ele>243.35083007812</ele>
        <time>2025-01-31T13:46:59Z</time>
      </trkpt>
      <trkpt lat="44.40617" lon="1.41662">
        <ele>244.31225585938</ele>
        <time>2025-01-31T13:47:17Z</time>
      </trkpt>
      <trkpt lat="44.40604" lon="1.4165">
        <ele>246.71545410156</ele>
        <time>2025-01-31T13:47:34Z</time>
      </trkpt>
      <trkpt lat="44.40593" lon="1.41637">
        <ele>248.15759277344</ele>
        <time>2025-01-31T13:47:49Z</time>
      </trkpt>
      <trkpt lat="44.40585" lon="1.41626">
        <ele>249.11877441406</ele>
        <time>2025-01-31T13:48:05Z</time>
      </trkpt>
      <trkpt lat="44.40579" lon="1.41609">
        <ele>250.08020019531</ele>
        <time>2025-01-31T13:48:21Z</time>
      </trkpt>
      <trkpt lat="44.40574" lon="1.41592">
        <ele>250.56079101562</ele>
        <time>2025-01-31T13:48:35Z</time>
      </trkpt>
      <trkpt lat="44.40569" lon="1.41568">
        <ele>251.52209472656</ele>
        <time>2025-01-31T13:48:54Z</time>
      </trkpt>
      <trkpt lat="44.40565" lon="1.41549">
        <ele>252.00280761719</ele>
        <time>2025-01-31T13:49:11Z</time>
      </trkpt>
      <trkpt lat="44.40561" lon="1.4153">
        <ele>252.4833984375</ele>
        <time>2025-01-31T13:49:27Z</time>
      </trkpt>
      <trkpt lat="44.40552" lon="1.41511">
        <ele>252.96398925781</ele>
        <time>2025-01-31T13:49:43Z</time>
      </trkpt>
      <trkpt lat="44.40547" lon="1.41489">
        <ele>252.96398925781</ele>
        <time>2025-01-31T13:50:00Z</time>
      </trkpt>
      <trkpt lat="44.40541" lon="1.41471">
        <ele>252.96398925781</ele>
        <time>2025-01-31T13:50:15Z</time>
      </trkpt>
      <trkpt lat="44.40535" lon="1.41463">
        <ele>251.52209472656</ele>
        <time>2025-01-31T13:50:25Z</time>
      </trkpt>
      <trkpt lat="44.40525" lon="1.41445">
        <ele>251.04138183594</ele>
        <time>2025-01-31T13:50:42Z</time>
      </trkpt>
      <trkpt lat="44.40511" lon="1.41424">
        <ele>249.11877441406</ele>
        <time>2025-01-31T13:51:00Z</time>
      </trkpt>
      <trkpt lat="44.40504" lon="1.41414">
        <ele>247.6767578125</ele>
        <time>2025-01-31T13:51:14Z</time>
      </trkpt>
      <trkpt lat="44.40494" lon="1.41396">
        <ele>246.23486328125</ele>
        <time>2025-01-31T13:51:29Z</time>
      </trkpt>
      <trkpt lat="44.40481" lon="1.41373">
        <ele>244.31225585938</ele>
        <time>2025-01-31T13:51:48Z</time>
      </trkpt>
      <trkpt lat="44.4048" lon="1.41367">
        <ele>243.83154296875</ele>
        <time>2025-01-31T13:52:03Z</time>
      </trkpt>
      <trkpt lat="44.40477" lon="1.41363">
        <ele>243.83154296875</ele>
        <time>2025-01-31T13:52:17Z</time>
      </trkpt>
      <trkpt lat="44.40469" lon="1.41343">
        <ele>242.87023925781</ele>
        <time>2025-01-31T13:52:34Z</time>
      </trkpt>
      <trkpt lat="44.40459" lon="1.41322">
        <ele>242.87023925781</ele>
        <time>2025-01-31T13:52:51Z</time>
      </trkpt>
      <trkpt lat="44.40455" lon="1.41296">
        <ele>242.87023925781</ele>
        <time>2025-01-31T13:53:08Z</time>
      </trkpt>
      <trkpt lat="44.40452" lon="1.41284">
        <ele>243.83154296875</ele>
        <time>2025-01-31T13:53:17Z</time>
      </trkpt>
      <trkpt lat="44.40448" lon="1.41261">
        <ele>244.79284667969</ele>
        <time>2025-01-31T13:53:33Z</time>
      </trkpt>
      <trkpt lat="44.40444" lon="1.41244">
        <ele>245.75415039062</ele>
        <time>2025-01-31T13:53:47Z</time>
      </trkpt>
      <trkpt lat="44.40439" lon="1.41223">
        <ele>246.71545410156</ele>
        <time>2025-01-31T13:54:03Z</time>
      </trkpt>
      <trkpt lat="44.40433" lon="1.41201">
        <ele>247.6767578125</ele>
        <time>2025-01-31T13:54:20Z</time>
      </trkpt>
      <trkpt lat="44.40425" lon="1.41177">
        <ele>249.11877441406</ele>
        <time>2025-01-31T13:54:38Z</time>
      </trkpt>
      <trkpt lat="44.40416" lon="1.41153">
        <ele>250.08020019531</ele>
        <time>2025-01-31T13:54:56Z</time>
      </trkpt>
      <trkpt lat="44.40406" lon="1.41132">
        <ele>251.52209472656</ele>
        <time>2025-01-31T13:55:14Z</time>
      </trkpt>
      <trkpt lat="44.40397" lon="1.41118">
        <ele>252.4833984375</ele>
        <time>2025-01-31T13:55:29Z</time>
      </trkpt>
      <trkpt lat="44.40388" lon="1.41105">
        <ele>253.92541503906</ele>
        <time>2025-01-31T13:55:43Z</time>
      </trkpt>
      <trkpt lat="44.40378" lon="1.41093">
        <ele>255.84802246094</ele>
        <time>2025-01-31T13:55:57Z</time>
      </trkpt>
      <trkpt lat="44.40365" lon="1.41079">
        <ele>256.32873535156</ele>
        <time>2025-01-31T13:56:12Z</time>
      </trkpt>
      <trkpt lat="44.40353" lon="1.41064">
        <ele>257.2900390625</ele>
        <time>2025-01-31T13:56:29Z</time>
      </trkpt>
      <trkpt lat="44.40337" lon="1.41053">
        <ele>258.73193359375</ele>
        <time>2025-01-31T13:56:47Z</time>
      </trkpt>
      <trkpt lat="44.40322" lon="1.41042">
        <ele>260.65454101562</ele>
        <time>2025-01-31T13:57:04Z</time>
      </trkpt>
      <trkpt lat="44.40306" lon="1.41033">
        <ele>263.05786132812</ele>
        <time>2025-01-31T13:57:21Z</time>
      </trkpt>
      <trkpt lat="44.40297" lon="1.4103">
        <ele>264.01928710938</ele>
        <time>2025-01-31T13:57:30Z</time>
      </trkpt>
      <trkpt lat="44.40281" lon="1.41025">
        <ele>265.46130371094</ele>
        <time>2025-01-31T13:57:47Z</time>
      </trkpt>
      <trkpt lat="44.40264" lon="1.41017">
        <ele>267.38391113281</ele>
        <time>2025-01-31T13:58:04Z</time>
      </trkpt>
      <trkpt lat="44.40245" lon="1.41004">
        <ele>269.30651855469</ele>
        <time>2025-01-31T13:58:24Z</time>
      </trkpt>
      <trkpt lat="44.40231" lon="1.40993">
        <ele>271.22912597656</ele>
        <time>2025-01-31T13:58:41Z</time>
      </trkpt>
      <trkpt lat="44.40226" lon="1.40988">
        <ele>271.22912597656</ele>
        <time>2025-01-31T13:58:57Z</time>
      </trkpt>
      <trkpt lat="44.4021" lon="1.40979">
        <ele>272.1904296875</ele>
        <time>2025-01-31T13:59:16Z</time>
      </trkpt>
      <trkpt lat="44.40198" lon="1.40973">
        <ele>272.67114257812</ele>
        <time>2025-01-31T13:59:29Z</time>
      </trkpt>
      <trkpt lat="44.40181" lon="1.40964">
        <ele>273.15185546875</ele>
        <time>2025-01-31T13:59:46Z</time>
      </trkpt>
      <trkpt lat="44.40179" lon="1.40962">
        <ele>273.15185546875</ele>
        <time>2025-01-31T14:00:00Z</time>
      </trkpt>
      <trkpt lat="44.40179" lon="1.40964">
        <ele>266.42248535156</ele>
        <time>2025-01-31T14:00:28Z</time>
      </trkpt>
      <trkpt lat="44.40179" lon="1.40964">
        <ele>275.07446289062</ele>
        <time>2025-01-31T14:00:29Z</time>
      </trkpt>
      <trkpt lat="44.40179" lon="1.40964">
        <ele>275.07446289062</ele>
        <time>2025-01-31T14:00:30Z</time>
      </trkpt>
      <trkpt lat="44.4018" lon="1.40964">
        <ele>272.67114257812</ele>
        <time>2025-01-31T14:00:33Z</time>
      </trkpt>
      <trkpt lat="44.40178" lon="1.40963">
        <ele>272.67114257812</ele>
        <time>2025-01-31T14:01:14Z</time>
      </trkpt>
      <trkpt lat="44.40177" lon="1.40961">
        <ele>273.63244628906</ele>
        <time>2025-01-31T14:01:22Z</time>
      </trkpt>
      <trkpt lat="44.40177" lon="1.40959">
        <ele>273.63244628906</ele>
        <time>2025-01-31T14:01:26Z</time>
      </trkpt>
      <trkpt lat="44.40164" lon="1.4095">
        <ele>274.11303710938</ele>
        <time>2025-01-31T14:01:40Z</time>
      </trkpt>
      <trkpt lat="44.40163" lon="1.40949">
        <ele>274.11303710938</ele>
        <time>2025-01-31T14:01:41Z</time>
      </trkpt>
      <trkpt lat="44.40146" lon="1.40936">
        <ele>274.59375</ele>
        <time>2025-01-31T14:02:00Z</time>
      </trkpt>
      <trkpt lat="44.4013" lon="1.40923">
        <ele>275.55505371094</ele>
        <time>2025-01-31T14:02:18Z</time>
      </trkpt>
      <trkpt lat="44.40126" lon="1.40919">
        <ele>275.55505371094</ele>
        <time>2025-01-31T14:02:23Z</time>
      </trkpt>
      <trkpt lat="44.40123" lon="1.40918">
        <ele>275.55505371094</ele>
        <time>2025-01-31T14:02:25Z</time>
      </trkpt>
      <trkpt lat="44.40106" lon="1.40902">
        <ele>276.51635742188</ele>
        <time>2025-01-31T14:02:44Z</time>
      </trkpt>
      <trkpt lat="44.40095" lon="1.40892">
        <ele>276.51635742188</ele>
        <time>2025-01-31T14:02:58Z</time>
      </trkpt>
      <trkpt lat="44.40079" lon="1.40882">
        <ele>277.95825195312</ele>
        <time>2025-01-31T14:03:15Z</time>
      </trkpt>
      <trkpt lat="44.40074" lon="1.4088">
        <ele>277.95825195312</ele>
        <time>2025-01-31T14:03:20Z</time>
      </trkpt>
      <trkpt lat="44.40071" lon="1.4088">
        <ele>277.95825195312</ele>
        <time>2025-01-31T14:03:23Z</time>
      </trkpt>
      <trkpt lat="44.40053" lon="1.40873">
        <ele>277.95825195312</ele>
        <time>2025-01-31T14:03:41Z</time>
      </trkpt>
      <trkpt lat="44.40037" lon="1.40866">
        <ele>277.95825195312</ele>
        <time>2025-01-31T14:03:57Z</time>
      </trkpt>
      <trkpt lat="44.40017" lon="1.40863">
        <ele>279.40026855469</ele>
        <time>2025-01-31T14:04:14Z</time>
      </trkpt>
      <trkpt lat="44.39998" lon="1.40861">
        <ele>279.40026855469</ele>
        <time>2025-01-31T14:04:30Z</time>
      </trkpt>
      <trkpt lat="44.3998" lon="1.40854">
        <ele>280.36169433594</ele>
        <time>2025-01-31T14:04:47Z</time>
      </trkpt>
      <trkpt lat="44.39965" lon="1.4085">
        <ele>281.80358886719</ele>
        <time>2025-01-31T14:05:01Z</time>
      </trkpt>
      <trkpt lat="44.39952" lon="1.40843">
        <ele>281.32299804688</ele>
        <time>2025-01-31T14:05:15Z</time>
      </trkpt>
      <trkpt lat="44.39944" lon="1.40835">
        <ele>280.36169433594</ele>
        <time>2025-01-31T14:05:25Z</time>
      </trkpt>
      <trkpt lat="44.39933" lon="1.40826">
        <ele>278.91967773438</ele>
        <time>2025-01-31T14:05:39Z</time>
      </trkpt>
      <trkpt lat="44.39919" lon="1.40814">
        <ele>276.51635742188</ele>
        <time>2025-01-31T14:05:55Z</time>
      </trkpt>
      <trkpt lat="44.39905" lon="1.40803">
        <ele>273.63244628906</ele>
        <time>2025-01-31T14:06:11Z</time>
      </trkpt>
      <trkpt lat="44.39893" lon="1.40795">
        <ele>271.70971679688</ele>
        <time>2025-01-31T14:06:27Z</time>
      </trkpt>
      <trkpt lat="44.39888" lon="1.40792">
        <ele>270.74841308594</ele>
        <time>2025-01-31T14:06:33Z</time>
      </trkpt>
      <trkpt lat="44.39872" lon="1.4078">
        <ele>267.38391113281</ele>
        <time>2025-01-31T14:06:50Z</time>
      </trkpt>
      <trkpt lat="44.39854" lon="1.40772">
        <ele>264.49987792969</ele>
        <time>2025-01-31T14:07:08Z</time>
      </trkpt>
      <trkpt lat="44.39842" lon="1.40769">
        <ele>263.05786132812</ele>
        <time>2025-01-31T14:07:21Z</time>
      </trkpt>
      <trkpt lat="44.39837" lon="1.40769">
        <ele>262.5771484375</ele>
        <time>2025-01-31T14:07:25Z</time>
      </trkpt>
      <trkpt lat="44.39815" lon="1.40762">
        <ele>261.13525390625</ele>
        <time>2025-01-31T14:07:44Z</time>
      </trkpt>
      <trkpt lat="44.39806" lon="1.40757">
        <ele>261.13525390625</ele>
        <time>2025-01-31T14:07:54Z</time>
      </trkpt>
      <trkpt lat="44.39784" lon="1.40747">
        <ele>260.65454101562</ele>
        <time>2025-01-31T14:08:15Z</time>
      </trkpt>
      <trkpt lat="44.39763" lon="1.40734">
        <ele>260.65454101562</ele>
        <time>2025-01-31T14:08:35Z</time>
      </trkpt>
      <trkpt lat="44.39743" lon="1.40728">
        <ele>261.61596679688</ele>
        <time>2025-01-31T14:08:53Z</time>
      </trkpt>
      <trkpt lat="44.39732" lon="1.40724">
        <ele>262.09655761719</ele>
        <time>2025-01-31T14:09:04Z</time>
      </trkpt>
      <trkpt lat="44.39713" lon="1.40722">
        <ele>262.09655761719</ele>
        <time>2025-01-31T14:09:22Z</time>
      </trkpt>
      <trkpt lat="44.39695" lon="1.40713">
        <ele>262.09655761719</ele>
        <time>2025-01-31T14:09:38Z</time>
      </trkpt>
      <trkpt lat="44.3968" lon="1.40703">
        <ele>260.65454101562</ele>
        <time>2025-01-31T14:09:52Z</time>
      </trkpt>
      <trkpt lat="44.39663" lon="1.40689">
        <ele>260.65454101562</ele>
        <time>2025-01-31T14:10:10Z</time>
      </trkpt>
      <trkpt lat="44.39654" lon="1.40682">
        <ele>262.09655761719</ele>
        <time>2025-01-31T14:10:19Z</time>
      </trkpt>
      <trkpt lat="44.3964" lon="1.40671">
        <ele>263.05786132812</ele>
        <time>2025-01-31T14:10:34Z</time>
      </trkpt>
      <trkpt lat="44.39621" lon="1.40658">
        <ele>264.01928710938</ele>
        <time>2025-01-31T14:10:53Z</time>
      </trkpt>
      <trkpt lat="44.39603" lon="1.40649">
        <ele>265.46130371094</ele>
        <time>2025-01-31T14:11:10Z</time>
      </trkpt>
      <trkpt lat="44.396" lon="1.40648">
        <ele>265.46130371094</ele>
        <time>2025-01-31T14:11:13Z</time>
      </trkpt>
      <trkpt lat="44.39595" lon="1.40645">
        <ele>265.94189453125</ele>
        <time>2025-01-31T14:11:17Z</time>
      </trkpt>
      <trkpt lat="44.39572" lon="1.40637">
        <ele>267.86450195312</ele>
        <time>2025-01-31T14:11:38Z</time>
      </trkpt>
      <trkpt lat="44.39555" lon="1.40629">
        <ele>269.787109375</ele>
        <time>2025-01-31T14:11:55Z</time>
      </trkpt>
      <trkpt lat="44.39539" lon="1.4062">
        <ele>271.70971679688</ele>
        <time>2025-01-31T14:12:11Z</time>
      </trkpt>
      <trkpt lat="44.39523" lon="1.40612">
        <ele>273.15185546875</ele>
        <time>2025-01-31T14:12:29Z</time>
      </trkpt>
      <trkpt lat="44.39509" lon="1.40603">
        <ele>275.07446289062</ele>
        <time>2025-01-31T14:12:45Z</time>
      </trkpt>
      <trkpt lat="44.39492" lon="1.40594">
        <ele>276.03564453125</ele>
        <time>2025-01-31T14:13:03Z</time>
      </trkpt>
      <trkpt lat="44.39474" lon="1.40589">
        <ele>277.95825195312</ele>
        <time>2025-01-31T14:13:22Z</time>
      </trkpt>
      <trkpt lat="44.39462" lon="1.40583">
        <ele>278.43896484375</ele>
        <time>2025-01-31T14:13:38Z</time>
      </trkpt>
      <trkpt lat="44.39453" lon="1.40577">
        <ele>278.43896484375</ele>
        <time>2025-01-31T14:13:55Z</time>
      </trkpt>
      <trkpt lat="44.39436" lon="1.40567">
        <ele>279.880859375</ele>
        <time>2025-01-31T14:14:14Z</time>
      </trkpt>
      <trkpt lat="44.39422" lon="1.40558">
        <ele>280.36169433594</ele>
        <time>2025-01-31T14:14:29Z</time>
      </trkpt>
      <trkpt lat="44.39409" lon="1.40539">
        <ele>280.84240722656</ele>
        <time>2025-01-31T14:14:48Z</time>
      </trkpt>
      <trkpt lat="44.39396" lon="1.40525">
        <ele>280.84240722656</ele>
        <time>2025-01-31T14:15:04Z</time>
      </trkpt>
      <trkpt lat="44.39383" lon="1.40517">
        <ele>281.32299804688</ele>
        <time>2025-01-31T14:15:20Z</time>
      </trkpt>
      <trkpt lat="44.39379" lon="1.40515">
        <ele>282.28430175781</ele>
        <time>2025-01-31T14:15:38Z</time>
      </trkpt>
      <trkpt lat="44.39367" lon="1.40506">
        <ele>283.72619628906</ele>
        <time>2025-01-31T14:15:55Z</time>
      </trkpt>
      <trkpt lat="44.39356" lon="1.40498">
        <ele>285.16821289062</ele>
        <time>2025-01-31T14:16:10Z</time>
      </trkpt>
      <trkpt lat="44.39339" lon="1.40487">
        <ele>286.61022949219</ele>
        <time>2025-01-31T14:16:29Z</time>
      </trkpt>
      <trkpt lat="44.39325" lon="1.4048">
        <ele>288.53295898438</ele>
        <time>2025-01-31T14:16:45Z</time>
      </trkpt>
      <trkpt lat="44.39309" lon="1.40475">
        <ele>289.494140625</ele>
        <time>2025-01-31T14:17:00Z</time>
      </trkpt>
      <trkpt lat="44.39288" lon="1.40465">
        <ele>290.93615722656</ele>
        <time>2025-01-31T14:17:21Z</time>
      </trkpt>
      <trkpt lat="44.39269" lon="1.40462">
        <ele>292.85876464844</ele>
        <time>2025-01-31T14:17:38Z</time>
      </trkpt>
      <trkpt lat="44.39254" lon="1.40452">
        <ele>294.78137207031</ele>
        <time>2025-01-31T14:17:55Z</time>
      </trkpt>
      <trkpt lat="44.39238" lon="1.40441">
        <ele>295.26196289062</ele>
        <time>2025-01-31T14:18:12Z</time>
      </trkpt>
      <trkpt lat="44.39223" lon="1.40426">
        <ele>296.7041015625</ele>
        <time>2025-01-31T14:18:28Z</time>
      </trkpt>
      <trkpt lat="44.39216" lon="1.40415">
        <ele>297.18469238281</ele>
        <time>2025-01-31T14:18:37Z</time>
      </trkpt>
      <trkpt lat="44.39213" lon="1.4041">
        <ele>297.18469238281</ele>
        <time>2025-01-31T14:18:42Z</time>
      </trkpt>
      <trkpt lat="44.3921" lon="1.40408">
        <ele>297.18469238281</ele>
        <time>2025-01-31T14:18:45Z</time>
      </trkpt>
      <trkpt lat="44.39188" lon="1.40405">
        <ele>297.18469238281</ele>
        <time>2025-01-31T14:19:05Z</time>
      </trkpt>
      <trkpt lat="44.39164" lon="1.40399">
        <ele>297.18469238281</ele>
        <time>2025-01-31T14:19:26Z</time>
      </trkpt>
      <trkpt lat="44.39143" lon="1.40392">
        <ele>297.18469238281</ele>
        <time>2025-01-31T14:19:45Z</time>
      </trkpt>
      <trkpt lat="44.39123" lon="1.40383">
        <ele>297.18469238281</ele>
        <time>2025-01-31T14:20:03Z</time>
      </trkpt>
      <trkpt lat="44.39118" lon="1.40379">
        <ele>295.74267578125</ele>
        <time>2025-01-31T14:20:08Z</time>
      </trkpt>
      <trkpt lat="44.391" lon="1.40366">
        <ele>294.78137207031</ele>
        <time>2025-01-31T14:20:27Z</time>
      </trkpt>
      <trkpt lat="44.39083" lon="1.40352">
        <ele>293.82006835938</ele>
        <time>2025-01-31T14:20:43Z</time>
      </trkpt>
      <trkpt lat="44.39071" lon="1.4034">
        <ele>293.33935546875</ele>
        <time>2025-01-31T14:20:59Z</time>
      </trkpt>
      <trkpt lat="44.39057" lon="1.40329">
        <ele>291.8974609375</ele>
        <time>2025-01-31T14:21:16Z</time>
      </trkpt>
      <trkpt lat="44.3904" lon="1.40314">
        <ele>289.97485351562</ele>
        <time>2025-01-31T14:21:34Z</time>
      </trkpt>
      <trkpt lat="44.39026" lon="1.40301">
        <ele>288.53295898438</ele>
        <time>2025-01-31T14:21:50Z</time>
      </trkpt>
      <trkpt lat="44.39011" lon="1.40289">
        <ele>286.12951660156</ele>
        <time>2025-01-31T14:22:07Z</time>
      </trkpt>
      <trkpt lat="44.38997" lon="1.40275">
        <ele>284.68762207031</ele>
        <time>2025-01-31T14:22:24Z</time>
      </trkpt>
      <trkpt lat="44.38994" lon="1.40271">
        <ele>283.24560546875</ele>
        <time>2025-01-31T14:22:28Z</time>
      </trkpt>
      <trkpt lat="44.38979" lon="1.40255">
        <ele>282.28430175781</ele>
        <time>2025-01-31T14:22:45Z</time>
      </trkpt>
      <trkpt lat="44.38973" lon="1.40243">
        <ele>282.28430175781</ele>
        <time>2025-01-31T14:23:02Z</time>
      </trkpt>
      <trkpt lat="44.3896" lon="1.40228">
        <ele>282.28430175781</ele>
        <time>2025-01-31T14:23:17Z</time>
      </trkpt>
      <trkpt lat="44.38943" lon="1.40198">
        <ele>282.76501464844</ele>
        <time>2025-01-31T14:23:40Z</time>
      </trkpt>
      <trkpt lat="44.38941" lon="1.4017">
        <ele>284.68762207031</ele>
        <time>2025-01-31T14:23:57Z</time>
      </trkpt>
      <trkpt lat="44.38943" lon="1.4016">
        <ele>284.68762207031</ele>
        <time>2025-01-31T14:24:12Z</time>
      </trkpt>
      <trkpt lat="44.38941" lon="1.40165">
        <ele>284.68762207031</ele>
        <time>2025-01-31T14:24:41Z</time>
      </trkpt>
      <trkpt lat="44.3894" lon="1.40161">
        <ele>284.20690917969</ele>
        <time>2025-01-31T14:25:11Z</time>
      </trkpt>
      <trkpt lat="44.3894" lon="1.40154">
        <ele>284.20690917969</ele>
        <time>2025-01-31T14:25:26Z</time>
      </trkpt>
      <trkpt lat="44.38946" lon="1.40126">
        <ele>284.20690917969</ele>
        <time>2025-01-31T14:25:42Z</time>
      </trkpt>
      <trkpt lat="44.38952" lon="1.40094">
        <ele>285.64880371094</ele>
        <time>2025-01-31T14:25:59Z</time>
      </trkpt>
      <trkpt lat="44.38956" lon="1.40059">
        <ele>285.64880371094</ele>
        <time>2025-01-31T14:26:17Z</time>
      </trkpt>
      <trkpt lat="44.3896" lon="1.40029">
        <ele>287.0908203125</ele>
        <time>2025-01-31T14:26:34Z</time>
      </trkpt>
      <trkpt lat="44.38968" lon="1.39991">
        <ele>287.57141113281</ele>
        <time>2025-01-31T14:26:55Z</time>
      </trkpt>
      <trkpt lat="44.38978" lon="1.39961">
        <ele>288.53295898438</ele>
        <time>2025-01-31T14:27:12Z</time>
      </trkpt>
      <trkpt lat="44.38986" lon="1.39931">
        <ele>289.01354980469</ele>
        <time>2025-01-31T14:27:29Z</time>
      </trkpt>
      <trkpt lat="44.38999" lon="1.39898">
        <ele>289.97485351562</ele>
        <time>2025-01-31T14:27:51Z</time>
      </trkpt>
      <trkpt lat="44.39006" lon="1.39871">
        <ele>290.93615722656</ele>
        <time>2025-01-31T14:28:08Z</time>
      </trkpt>
      <trkpt lat="44.39004" lon="1.39844">
        <ele>290.93615722656</ele>
        <time>2025-01-31T14:28:25Z</time>
      </trkpt>
      <trkpt lat="44.38989" lon="1.39816">
        <ele>290.93615722656</ele>
        <time>2025-01-31T14:28:45Z</time>
      </trkpt>
      <trkpt lat="44.38978" lon="1.39805">
        <ele>290.93615722656</ele>
        <time>2025-01-31T14:28:57Z</time>
      </trkpt>
      <trkpt lat="44.38978" lon="1.39799">
        <ele>290.93615722656</ele>
        <time>2025-01-31T14:29:01Z</time>
      </trkpt>
      <trkpt lat="44.38982" lon="1.39786">
        <ele>289.494140625</ele>
        <time>2025-01-31T14:29:11Z</time>
      </trkpt>
      <trkpt lat="44.38992" lon="1.39768">
        <ele>287.57141113281</ele>
        <time>2025-01-31T14:29:26Z</time>
      </trkpt>
      <trkpt lat="44.38995" lon="1.39759">
        <ele>286.61022949219</ele>
        <time>2025-01-31T14:29:34Z</time>
      </trkpt>
      <trkpt lat="44.38997" lon="1.39758">
        <ele>285.64880371094</ele>
        <time>2025-01-31T14:29:36Z</time>
      </trkpt>
      <trkpt lat="44.39006" lon="1.39741">
        <ele>283.24560546875</ele>
        <time>2025-01-31T14:29:51Z</time>
      </trkpt>
      <trkpt lat="44.3901" lon="1.39726">
        <ele>279.880859375</ele>
        <time>2025-01-31T14:30:04Z</time>
      </trkpt>
      <trkpt lat="44.39012" lon="1.39709">
        <ele>277.47766113281</ele>
        <time>2025-01-31T14:30:17Z</time>
      </trkpt>
      <trkpt lat="44.39015" lon="1.39687">
        <ele>274.11303710938</ele>
        <time>2025-01-31T14:30:36Z</time>
      </trkpt>
      <trkpt lat="44.39016" lon="1.39667">
        <ele>270.74841308594</ele>
        <time>2025-01-31T14:30:52Z</time>
      </trkpt>
      <trkpt lat="44.39016" lon="1.39642">
        <ele>268.82580566406</ele>
        <time>2025-01-31T14:31:08Z</time>
      </trkpt>
      <trkpt lat="44.39013" lon="1.39629">
        <ele>267.38391113281</ele>
        <time>2025-01-31T14:31:23Z</time>
      </trkpt>
      <trkpt lat="44.39015" lon="1.39631">
        <ele>266.90319824219</ele>
        <time>2025-01-31T14:31:39Z</time>
      </trkpt>
      <trkpt lat="44.39015" lon="1.39639">
        <ele>266.90319824219</ele>
        <time>2025-01-31T14:32:13Z</time>
      </trkpt>
      <trkpt lat="44.39015" lon="1.39636">
        <ele>266.90319824219</ele>
        <time>2025-01-31T14:32:54Z</time>
      </trkpt>
      <trkpt lat="44.39015" lon="1.39637">
        <ele>266.42248535156</ele>
        <time>2025-01-31T14:33:26Z</time>
      </trkpt>
      <trkpt lat="44.39016" lon="1.39637">
        <ele>266.42248535156</ele>
        <time>2025-01-31T14:34:03Z</time>
      </trkpt>
      <trkpt lat="44.39014" lon="1.39638">
        <ele>265.46130371094</ele>
        <time>2025-01-31T14:34:39Z</time>
      </trkpt>
      <trkpt lat="44.39015" lon="1.39638">
        <ele>265.46130371094</ele>
        <time>2025-01-31T14:35:09Z</time>
      </trkpt>
      <trkpt lat="44.39014" lon="1.39634">
        <ele>265.46130371094</ele>
        <time>2025-01-31T14:35:18Z</time>
      </trkpt>
      <trkpt lat="44.39013" lon="1.3963">
        <ele>265.46130371094</ele>
        <time>2025-01-31T14:35:20Z</time>
      </trkpt>
      <trkpt lat="44.39015" lon="1.39619">
        <ele>265.46130371094</ele>
        <time>2025-01-31T14:35:26Z</time>
      </trkpt>
      <trkpt lat="44.39018" lon="1.39609">
        <ele>264.98059082031</ele>
        <time>2025-01-31T14:35:32Z</time>
      </trkpt>
      <trkpt lat="44.39026" lon="1.39602">
        <ele>264.49987792969</ele>
        <time>2025-01-31T14:35:39Z</time>
      </trkpt>
      <trkpt lat="44.39034" lon="1.39598">
        <ele>263.53857421875</ele>
        <time>2025-01-31T14:35:45Z</time>
      </trkpt>
      <trkpt lat="44.39049" lon="1.3959">
        <ele>262.09655761719</ele>
        <time>2025-01-31T14:35:59Z</time>
      </trkpt>
      <trkpt lat="44.3907" lon="1.39579">
        <ele>260.65454101562</ele>
        <time>2025-01-31T14:36:15Z</time>
      </trkpt>
      <trkpt lat="44.39088" lon="1.39555">
        <ele>259.693359375</ele>
        <time>2025-01-31T14:36:32Z</time>
      </trkpt>
      <trkpt lat="44.39101" lon="1.39526">
        <ele>258.25134277344</ele>
        <time>2025-01-31T14:36:48Z</time>
      </trkpt>
      <trkpt lat="44.39109" lon="1.39496">
        <ele>256.32873535156</ele>
        <time>2025-01-31T14:37:03Z</time>
      </trkpt>
      <trkpt lat="44.39109" lon="1.39495">
        <ele>256.32873535156</ele>
        <time>2025-01-31T14:37:04Z</time>
      </trkpt>
      <trkpt lat="44.39117" lon="1.39472">
        <ele>255.84802246094</ele>
        <time>2025-01-31T14:37:18Z</time>
      </trkpt>
      <trkpt lat="44.39124" lon="1.3946">
        <ele>255.36730957031</ele>
        <time>2025-01-31T14:37:25Z</time>
      </trkpt>
      <trkpt lat="44.39142" lon="1.39446">
        <ele>253.92541503906</ele>
        <time>2025-01-31T14:37:41Z</time>
      </trkpt>
      <trkpt lat="44.39161" lon="1.39428">
        <ele>252.4833984375</ele>
        <time>2025-01-31T14:37:58Z</time>
      </trkpt>
      <trkpt lat="44.39164" lon="1.39427">
        <ele>252.00280761719</ele>
        <time>2025-01-31T14:38:01Z</time>
      </trkpt>
      <trkpt lat="44.39169" lon="1.39421">
        <ele>251.52209472656</ele>
        <time>2025-01-31T14:38:05Z</time>
      </trkpt>
      <trkpt lat="44.39183" lon="1.39407">
        <ele>250.56079101562</ele>
        <time>2025-01-31T14:38:20Z</time>
      </trkpt>
      <trkpt lat="44.39192" lon="1.39393">
        <ele>249.59948730469</ele>
        <time>2025-01-31T14:38:34Z</time>
      </trkpt>
      <trkpt lat="44.39204" lon="1.39376">
        <ele>247.6767578125</ele>
        <time>2025-01-31T14:38:48Z</time>
      </trkpt>
      <trkpt lat="44.39215" lon="1.39363">
        <ele>247.19604492188</ele>
        <time>2025-01-31T14:39:01Z</time>
      </trkpt>
      <trkpt lat="44.39225" lon="1.39352">
        <ele>246.23486328125</ele>
        <time>2025-01-31T14:39:11Z</time>
      </trkpt>
      <trkpt lat="44.3924" lon="1.39329">
        <ele>244.79284667969</ele>
        <time>2025-01-31T14:39:26Z</time>
      </trkpt>
      <trkpt lat="44.39245" lon="1.39321">
        <ele>244.31225585938</ele>
        <time>2025-01-31T14:39:31Z</time>
      </trkpt>
      <trkpt lat="44.3925" lon="1.39315">
        <ele>244.31225585938</ele>
        <time>2025-01-31T14:39:36Z</time>
      </trkpt>
      <trkpt lat="44.39261" lon="1.39297">
        <ele>242.87023925781</ele>
        <time>2025-01-31T14:39:51Z</time>
      </trkpt>
      <trkpt lat="44.3927" lon="1.39274">
        <ele>241.42822265625</ele>
        <time>2025-01-31T14:40:06Z</time>
      </trkpt>
      <trkpt lat="44.39277" lon="1.39253">
        <ele>239.98620605469</ele>
        <time>2025-01-31T14:40:20Z</time>
      </trkpt>
      <trkpt lat="44.39282" lon="1.3924">
        <ele>239.02490234375</ele>
        <time>2025-01-31T14:40:30Z</time>
      </trkpt>
      <trkpt lat="44.39288" lon="1.39222">
        <ele>238.06359863281</ele>
        <time>2025-01-31T14:40:45Z</time>
      </trkpt>
      <trkpt lat="44.39296" lon="1.39196">
        <ele>236.14099121094</ele>
        <time>2025-01-31T14:41:01Z</time>
      </trkpt>
      <trkpt lat="44.39304" lon="1.39177">
        <ele>235.1796875</ele>
        <time>2025-01-31T14:41:16Z</time>
      </trkpt>
      <trkpt lat="44.39315" lon="1.39162">
        <ele>234.69909667969</ele>
        <time>2025-01-31T14:41:29Z</time>
      </trkpt>
      <trkpt lat="44.39327" lon="1.39152">
        <ele>232.77648925781</ele>
        <time>2025-01-31T14:41:43Z</time>
      </trkpt>
      <trkpt lat="44.3934" lon="1.39143">
        <ele>232.29577636719</ele>
        <time>2025-01-31T14:41:57Z</time>
      </trkpt>
      <trkpt lat="44.39362" lon="1.39135">
        <ele>230.373046875</ele>
        <time>2025-01-31T14:42:15Z</time>
      </trkpt>
      <trkpt lat="44.39371" lon="1.39131">
        <ele>230.373046875</ele>
        <time>2025-01-31T14:42:29Z</time>
      </trkpt>
      <trkpt lat="44.39377" lon="1.39128">
        <ele>229.89233398438</ele>
        <time>2025-01-31T14:42:33Z</time>
      </trkpt>
      <trkpt lat="44.39395" lon="1.39131">
        <ele>228.93115234375</ele>
        <time>2025-01-31T14:42:48Z</time>
      </trkpt>
      <trkpt lat="44.39411" lon="1.39138">
        <ele>227.9697265625</ele>
        <time>2025-01-31T14:43:02Z</time>
      </trkpt>
      <trkpt lat="44.39426" lon="1.39145">
        <ele>227.48913574219</ele>
        <time>2025-01-31T14:43:16Z</time>
      </trkpt>
      <trkpt lat="44.39429" lon="1.39148">
        <ele>227.48913574219</ele>
        <time>2025-01-31T14:43:19Z</time>
      </trkpt>
      <trkpt lat="44.39432" lon="1.39149">
        <ele>227.48913574219</ele>
        <time>2025-01-31T14:43:21Z</time>
      </trkpt>
      <trkpt lat="44.39448" lon="1.39162">
        <ele>226.04711914062</ele>
        <time>2025-01-31T14:43:35Z</time>
      </trkpt>
      <trkpt lat="44.3946" lon="1.39178">
        <ele>225.56652832031</ele>
        <time>2025-01-31T14:43:49Z</time>
      </trkpt>
      <trkpt lat="44.39471" lon="1.39183">
        <ele>225.56652832031</ele>
        <time>2025-01-31T14:44:03Z</time>
      </trkpt>
      <trkpt lat="44.39484" lon="1.39186">
        <ele>224.60522460938</ele>
        <time>2025-01-31T14:44:18Z</time>
      </trkpt>
      <trkpt lat="44.3949" lon="1.39187">
        <ele>224.60522460938</ele>
        <time>2025-01-31T14:44:26Z</time>
      </trkpt>
      <trkpt lat="44.39501" lon="1.3919">
        <ele>223.64379882812</ele>
        <time>2025-01-31T14:44:36Z</time>
      </trkpt>
      <trkpt lat="44.39514" lon="1.39188">
        <ele>222.68249511719</ele>
        <time>2025-01-31T14:44:50Z</time>
      </trkpt>
      <trkpt lat="44.39527" lon="1.39184">
        <ele>222.68249511719</ele>
        <time>2025-01-31T14:45:04Z</time>
      </trkpt>
      <trkpt lat="44.39542" lon="1.39181">
        <ele>222.20178222656</ele>
        <time>2025-01-31T14:45:18Z</time>
      </trkpt>
      <trkpt lat="44.39556" lon="1.39178">
        <ele>221.72119140625</ele>
        <time>2025-01-31T14:45:32Z</time>
      </trkpt>
      <trkpt lat="44.39571" lon="1.39171">
        <ele>221.24060058594</ele>
        <time>2025-01-31T14:45:44Z</time>
      </trkpt>
      <trkpt lat="44.39584" lon="1.39167">
        <ele>220.75988769531</ele>
        <time>2025-01-31T14:45:58Z</time>
      </trkpt>
      <trkpt lat="44.39597" lon="1.39157">
        <ele>219.79858398438</ele>
        <time>2025-01-31T14:46:12Z</time>
      </trkpt>
      <trkpt lat="44.39608" lon="1.39147">
        <ele>218.83728027344</ele>
        <time>2025-01-31T14:46:23Z</time>
      </trkpt>
      <trkpt lat="44.39619" lon="1.39135">
        <ele>217.8759765625</ele>
        <time>2025-01-31T14:46:34Z</time>
      </trkpt>
      <trkpt lat="44.39626" lon="1.39127">
        <ele>217.8759765625</ele>
        <time>2025-01-31T14:46:40Z</time>
      </trkpt>
      <trkpt lat="44.39639" lon="1.39111">
        <ele>216.91467285156</ele>
        <time>2025-01-31T14:46:56Z</time>
      </trkpt>
      <trkpt lat="44.39649" lon="1.39096">
        <ele>216.43395996094</ele>
        <time>2025-01-31T14:47:11Z</time>
      </trkpt>
      <trkpt lat="44.39655" lon="1.3909">
        <ele>215.95324707031</ele>
        <time>2025-01-31T14:47:20Z</time>
      </trkpt>
      <trkpt lat="44.39664" lon="1.39081">
        <ele>215.47265625</ele>
        <time>2025-01-31T14:47:29Z</time>
      </trkpt>
      <trkpt lat="44.39674" lon="1.39068">
        <ele>214.51123046875</ele>
        <time>2025-01-31T14:47:43Z</time>
      </trkpt>
      <trkpt lat="44.39688" lon="1.39051">
        <ele>213.55004882812</ele>
        <time>2025-01-31T14:47:58Z</time>
      </trkpt>
      <trkpt lat="44.39699" lon="1.39039">
        <ele>213.0693359375</ele>
        <time>2025-01-31T14:48:10Z</time>
      </trkpt>
      <trkpt lat="44.39701" lon="1.39036">
        <ele>212.58862304688</ele>
        <time>2025-01-31T14:48:25Z</time>
      </trkpt>
      <trkpt lat="44.39699" lon="1.39028">
        <ele>209.70483398438</ele>
        <time>2025-01-31T14:48:55Z</time>
      </trkpt>
      <trkpt lat="44.39699" lon="1.39028">
        <ele>214.51123046875</ele>
        <time>2025-01-31T14:48:56Z</time>
      </trkpt>
      <trkpt lat="44.39712" lon="1.39023">
        <ele>212.10803222656</ele>
        <time>2025-01-31T14:49:09Z</time>
      </trkpt>
      <trkpt lat="44.39725" lon="1.39019">
        <ele>212.10803222656</ele>
        <time>2025-01-31T14:49:24Z</time>
      </trkpt>
      <trkpt lat="44.39739" lon="1.39013">
        <ele>212.10803222656</ele>
        <time>2025-01-31T14:49:37Z</time>
      </trkpt>
      <trkpt lat="44.39755" lon="1.39008">
        <ele>211.14672851562</ele>
        <time>2025-01-31T14:49:51Z</time>
      </trkpt>
      <trkpt lat="44.39772" lon="1.39002">
        <ele>209.70483398438</ele>
        <time>2025-01-31T14:50:07Z</time>
      </trkpt>
      <trkpt lat="44.39788" lon="1.38996">
        <ele>209.22412109375</ele>
        <time>2025-01-31T14:50:21Z</time>
      </trkpt>
      <trkpt lat="44.39804" lon="1.38992">
        <ele>208.26281738281</ele>
        <time>2025-01-31T14:50:36Z</time>
      </trkpt>
      <trkpt lat="44.39825" lon="1.38988">
        <ele>207.30139160156</ele>
        <time>2025-01-31T14:50:53Z</time>
      </trkpt>
      <trkpt lat="44.3984" lon="1.38985">
        <ele>207.30139160156</ele>
        <time>2025-01-31T14:51:08Z</time>
      </trkpt>
      <trkpt lat="44.39855" lon="1.38984">
        <ele>206.82067871094</ele>
        <time>2025-01-31T14:51:23Z</time>
      </trkpt>
      <trkpt lat="44.39872" lon="1.38989">
        <ele>205.37878417969</ele>
        <time>2025-01-31T14:51:38Z</time>
      </trkpt>
      <trkpt lat="44.39887" lon="1.38995">
        <ele>204.89807128906</ele>
        <time>2025-01-31T14:51:51Z</time>
      </trkpt>
      <trkpt lat="44.39906" lon="1.39009">
        <ele>203.45617675781</ele>
        <time>2025-01-31T14:52:08Z</time>
      </trkpt>
      <trkpt lat="44.39918" lon="1.39024">
        <ele>202.97546386719</ele>
        <time>2025-01-31T14:52:22Z</time>
      </trkpt>
      <trkpt lat="44.3993" lon="1.39035">
        <ele>202.97546386719</ele>
        <time>2025-01-31T14:52:33Z</time>
      </trkpt>
      <trkpt lat="44.39942" lon="1.39053">
        <ele>202.49487304688</ele>
        <time>2025-01-31T14:52:48Z</time>
      </trkpt>
      <trkpt lat="44.39955" lon="1.39072">
        <ele>202.01428222656</ele>
        <time>2025-01-31T14:53:05Z</time>
      </trkpt>
      <trkpt lat="44.39956" lon="1.39073">
        <ele>202.01428222656</ele>
        <time>2025-01-31T14:53:06Z</time>
      </trkpt>
      <trkpt lat="44.39969" lon="1.39086">
        <ele>201.53356933594</ele>
        <time>2025-01-31T14:53:21Z</time>
      </trkpt>
      <trkpt lat="44.39982" lon="1.39099">
        <ele>200.572265625</ele>
        <time>2025-01-31T14:53:36Z</time>
      </trkpt>
      <trkpt lat="44.39983" lon="1.39101">
        <ele>200.572265625</ele>
        <time>2025-01-31T14:53:38Z</time>
      </trkpt>
      <trkpt lat="44.39997" lon="1.39108">
        <ele>200.09167480469</ele>
        <time>2025-01-31T14:53:51Z</time>
      </trkpt>
      <trkpt lat="44.4001" lon="1.39115">
        <ele>200.09167480469</ele>
        <time>2025-01-31T14:54:04Z</time>
      </trkpt>
      <trkpt lat="44.40022" lon="1.39114">
        <ele>199.13012695312</ele>
        <time>2025-01-31T14:54:17Z</time>
      </trkpt>
      <trkpt lat="44.4003" lon="1.39109">
        <ele>199.61083984375</ele>
        <time>2025-01-31T14:54:31Z</time>
      </trkpt>
      <trkpt lat="44.4004" lon="1.39116">
        <ele>199.13012695312</ele>
        <time>2025-01-31T14:54:43Z</time>
      </trkpt>
      <trkpt lat="44.40055" lon="1.39126">
        <ele>198.1689453125</ele>
        <time>2025-01-31T14:54:57Z</time>
      </trkpt>
      <trkpt lat="44.40072" lon="1.39135">
        <ele>198.64953613281</ele>
        <time>2025-01-31T14:55:11Z</time>
      </trkpt>
      <trkpt lat="44.40085" lon="1.3914">
        <ele>198.64953613281</ele>
        <time>2025-01-31T14:55:23Z</time>
      </trkpt>
      <trkpt lat="44.40096" lon="1.3915">
        <ele>198.1689453125</ele>
        <time>2025-01-31T14:55:36Z</time>
      </trkpt>
      <trkpt lat="44.4011" lon="1.39154">
        <ele>197.20751953125</ele>
        <time>2025-01-31T14:55:48Z</time>
      </trkpt>
      <trkpt lat="44.40123" lon="1.39156">
        <ele>197.20751953125</ele>
        <time>2025-01-31T14:55:59Z</time>
      </trkpt>
      <trkpt lat="44.40135" lon="1.39159">
        <ele>195.765625</ele>
        <time>2025-01-31T14:56:10Z</time>
      </trkpt>
      <trkpt lat="44.40155" lon="1.39167">
        <ele>195.28491210938</ele>
        <time>2025-01-31T14:56:27Z</time>
      </trkpt>
      <trkpt lat="44.40176" lon="1.39175">
        <ele>194.32373046875</ele>
        <time>2025-01-31T14:56:43Z</time>
      </trkpt>
      <trkpt lat="44.40191" lon="1.39181">
        <ele>193.84301757812</ele>
        <time>2025-01-31T14:56:57Z</time>
      </trkpt>
      <trkpt lat="44.40204" lon="1.39188">
        <ele>193.3623046875</ele>
        <time>2025-01-31T14:57:11Z</time>
      </trkpt>
      <trkpt lat="44.40221" lon="1.39195">
        <ele>192.88171386719</ele>
        <time>2025-01-31T14:57:25Z</time>
      </trkpt>
      <trkpt lat="44.40236" lon="1.39201">
        <ele>191.92028808594</ele>
        <time>2025-01-31T14:57:40Z</time>
      </trkpt>
      <trkpt lat="44.40244" lon="1.39204">
        <ele>191.92028808594</ele>
        <time>2025-01-31T14:58:04Z</time>
      </trkpt>
      <trkpt lat="44.40255" lon="1.39207">
        <ele>191.92028808594</ele>
        <time>2025-01-31T14:58:18Z</time>
      </trkpt>
      <trkpt lat="44.40267" lon="1.3921">
        <ele>191.43957519531</ele>
        <time>2025-01-31T14:58:33Z</time>
      </trkpt>
      <trkpt lat="44.40284" lon="1.39214">
        <ele>190.958984375</ele>
        <time>2025-01-31T14:58:49Z</time>
      </trkpt>
      <trkpt lat="44.403" lon="1.39219">
        <ele>190.47839355469</ele>
        <time>2025-01-31T14:59:04Z</time>
      </trkpt>
      <trkpt lat="44.40305" lon="1.3922">
        <ele>189.51696777344</ele>
        <time>2025-01-31T14:59:08Z</time>
      </trkpt>
      <trkpt lat="44.40313" lon="1.39226">
        <ele>189.51696777344</ele>
        <time>2025-01-31T14:59:24Z</time>
      </trkpt>
      <trkpt lat="44.40319" lon="1.39238">
        <ele>188.55578613281</ele>
        <time>2025-01-31T14:59:40Z</time>
      </trkpt>
      <trkpt lat="44.40319" lon="1.39238">
        <ele>188.55578613281</ele>
        <time>2025-01-31T15:00:03Z</time>
      </trkpt>
      <trkpt lat="44.4032" lon="1.39249">
        <ele>188.55578613281</ele>
        <time>2025-01-31T15:00:18Z</time>
      </trkpt>
      <trkpt lat="44.40322" lon="1.3926">
        <ele>188.55578613281</ele>
        <time>2025-01-31T15:00:26Z</time>
      </trkpt>
      <trkpt lat="44.40319" lon="1.39281">
        <ele>188.55578613281</ele>
        <time>2025-01-31T15:00:41Z</time>
      </trkpt>
      <trkpt lat="44.40318" lon="1.39302">
        <ele>188.55578613281</ele>
        <time>2025-01-31T15:00:57Z</time>
      </trkpt>
      <trkpt lat="44.40318" lon="1.39323">
        <ele>188.07507324219</ele>
        <time>2025-01-31T15:01:14Z</time>
      </trkpt>
      <trkpt lat="44.40318" lon="1.39344">
        <ele>187.59436035156</ele>
        <time>2025-01-31T15:01:30Z</time>
      </trkpt>
      <trkpt lat="44.40318" lon="1.39346">
        <ele>187.59436035156</ele>
        <time>2025-01-31T15:01:32Z</time>
      </trkpt>
      <trkpt lat="44.40313" lon="1.39364">
        <ele>187.11376953125</ele>
        <time>2025-01-31T15:01:45Z</time>
      </trkpt>
      <trkpt lat="44.40313" lon="1.39387">
        <ele>187.11376953125</ele>
        <time>2025-01-31T15:02:03Z</time>
      </trkpt>
      <trkpt lat="44.40309" lon="1.39408">
        <ele>186.63317871094</ele>
        <time>2025-01-31T15:02:20Z</time>
      </trkpt>
      <trkpt lat="44.40306" lon="1.39435">
        <ele>185.67175292969</ele>
        <time>2025-01-31T15:02:36Z</time>
      </trkpt>
      <trkpt lat="44.40298" lon="1.3946">
        <ele>185.67175292969</ele>
        <time>2025-01-31T15:02:53Z</time>
      </trkpt>
      <trkpt lat="44.40289" lon="1.39482">
        <ele>185.19116210938</ele>
        <time>2025-01-31T15:03:09Z</time>
      </trkpt>
      <trkpt lat="44.40282" lon="1.39505">
        <ele>184.71057128906</ele>
        <time>2025-01-31T15:03:26Z</time>
      </trkpt>
      <trkpt lat="44.40276" lon="1.39534">
        <ele>184.22985839844</ele>
        <time>2025-01-31T15:03:45Z</time>
      </trkpt>
      <trkpt lat="44.4027" lon="1.39553">
        <ele>183.7490234375</ele>
        <time>2025-01-31T15:04:00Z</time>
      </trkpt>
      <trkpt lat="44.40265" lon="1.39579">
        <ele>183.26843261719</ele>
        <time>2025-01-31T15:04:18Z</time>
      </trkpt>
      <trkpt lat="44.40263" lon="1.39591">
        <ele>183.26843261719</ele>
        <time>2025-01-31T15:04:26Z</time>
      </trkpt>
      <trkpt lat="44.40263" lon="1.39615">
        <ele>182.78784179688</ele>
        <time>2025-01-31T15:04:42Z</time>
      </trkpt>
      <trkpt lat="44.40259" lon="1.39633">
        <ele>182.30712890625</ele>
        <time>2025-01-31T15:04:54Z</time>
      </trkpt>
      <trkpt lat="44.40258" lon="1.3964">
        <ele>182.30712890625</ele>
        <time>2025-01-31T15:04:58Z</time>
      </trkpt>
      <trkpt lat="44.40253" lon="1.39659">
        <ele>182.30712890625</ele>
        <time>2025-01-31T15:05:11Z</time>
      </trkpt>
      <trkpt lat="44.40248" lon="1.39681">
        <ele>182.30712890625</ele>
        <time>2025-01-31T15:05:27Z</time>
      </trkpt>
      <trkpt lat="44.40246" lon="1.39702">
        <ele>181.82641601562</ele>
        <time>2025-01-31T15:05:41Z</time>
      </trkpt>
      <trkpt lat="44.40238" lon="1.39724">
        <ele>181.82641601562</ele>
        <time>2025-01-31T15:05:57Z</time>
      </trkpt>
      <trkpt lat="44.40233" lon="1.39746">
        <ele>181.34582519531</ele>
        <time>2025-01-31T15:06:12Z</time>
      </trkpt>
      <trkpt lat="44.40232" lon="1.39751">
        <ele>181.34582519531</ele>
        <time>2025-01-31T15:06:23Z</time>
      </trkpt>
      <trkpt lat="44.4023" lon="1.39771">
        <ele>180.865234375</ele>
        <time>2025-01-31T15:06:39Z</time>
      </trkpt>
      <trkpt lat="44.40222" lon="1.39785">
        <ele>180.865234375</ele>
        <time>2025-01-31T15:06:54Z</time>
      </trkpt>
      <trkpt lat="44.40219" lon="1.39797">
        <ele>180.865234375</ele>
        <time>2025-01-31T15:07:08Z</time>
      </trkpt>
      <trkpt lat="44.40216" lon="1.39818">
        <ele>182.30712890625</ele>
        <time>2025-01-31T15:07:25Z</time>
      </trkpt>
      <trkpt lat="44.40218" lon="1.39839">
        <ele>182.78784179688</ele>
        <time>2025-01-31T15:07:38Z</time>
      </trkpt>
      <trkpt lat="44.4022" lon="1.39859">
        <ele>182.78784179688</ele>
        <time>2025-01-31T15:07:52Z</time>
      </trkpt>
      <trkpt lat="44.4022" lon="1.39868">
        <ele>182.78784179688</ele>
        <time>2025-01-31T15:07:58Z</time>
      </trkpt>
      <trkpt lat="44.40218" lon="1.39881">
        <ele>181.82641601562</ele>
        <time>2025-01-31T15:08:08Z</time>
      </trkpt>
      <trkpt lat="44.4022" lon="1.39889">
        <ele>181.34582519531</ele>
        <time>2025-01-31T15:08:13Z</time>
      </trkpt>
      <trkpt lat="44.40228" lon="1.39912">
        <ele>181.34582519531</ele>
        <time>2025-01-31T15:08:29Z</time>
      </trkpt>
      <trkpt lat="44.40229" lon="1.39918">
        <ele>181.34582519531</ele>
        <time>2025-01-31T15:08:33Z</time>
      </trkpt>
      <trkpt lat="44.4024" lon="1.39944">
        <ele>181.34582519531</ele>
        <time>2025-01-31T15:08:50Z</time>
      </trkpt>
      <trkpt lat="44.40245" lon="1.39953">
        <ele>181.34582519531</ele>
        <time>2025-01-31T15:08:57Z</time>
      </trkpt>
      <trkpt lat="44.40253" lon="1.3997">
        <ele>180.865234375</ele>
        <time>2025-01-31T15:09:11Z</time>
      </trkpt>
      <trkpt lat="44.40271" lon="1.39986">
        <ele>179.42321777344</ele>
        <time>2025-01-31T15:09:28Z</time>
      </trkpt>
      <trkpt lat="44.40282" lon="1.39996">
        <ele>179.90380859375</ele>
        <time>2025-01-31T15:09:43Z</time>
      </trkpt>
      <trkpt lat="44.40286" lon="1.40005">
        <ele>180.865234375</ele>
        <time>2025-01-31T15:09:56Z</time>
      </trkpt>
      <trkpt lat="44.40286" lon="1.40008">
        <ele>180.865234375</ele>
        <time>2025-01-31T15:09:58Z</time>
      </trkpt>
      <trkpt lat="44.40286" lon="1.40011">
        <ele>180.865234375</ele>
        <time>2025-01-31T15:10:00Z</time>
      </trkpt>
      <trkpt lat="44.4029" lon="1.40033">
        <ele>181.34582519531</ele>
        <time>2025-01-31T15:10:15Z</time>
      </trkpt>
      <trkpt lat="44.40296" lon="1.40053">
        <ele>181.34582519531</ele>
        <time>2025-01-31T15:10:27Z</time>
      </trkpt>
      <trkpt lat="44.403" lon="1.40063">
        <ele>181.34582519531</ele>
        <time>2025-01-31T15:10:33Z</time>
      </trkpt>
      <trkpt lat="44.403" lon="1.40066">
        <ele>179.90380859375</ele>
        <time>2025-01-31T15:10:35Z</time>
      </trkpt>
      <trkpt lat="44.40305" lon="1.40073">
        <ele>179.90380859375</ele>
        <time>2025-01-31T15:10:41Z</time>
      </trkpt>
      <trkpt lat="44.40307" lon="1.40079">
        <ele>179.90380859375</ele>
        <time>2025-01-31T15:10:45Z</time>
      </trkpt>
      <trkpt lat="44.40308" lon="1.40085">
        <ele>179.90380859375</ele>
        <time>2025-01-31T15:10:49Z</time>
      </trkpt>
      <trkpt lat="44.40321" lon="1.40104">
        <ele>179.90380859375</ele>
        <time>2025-01-31T15:11:03Z</time>
      </trkpt>
      <trkpt lat="44.40325" lon="1.40114">
        <ele>179.42321777344</ele>
        <time>2025-01-31T15:11:10Z</time>
      </trkpt>
      <trkpt lat="44.4033" lon="1.40123">
        <ele>179.42321777344</ele>
        <time>2025-01-31T15:11:17Z</time>
      </trkpt>
      <trkpt lat="44.40339" lon="1.40139">
        <ele>178.94262695312</ele>
        <time>2025-01-31T15:11:30Z</time>
      </trkpt>
      <trkpt lat="44.40343" lon="1.40149">
        <ele>178.4619140625</ele>
        <time>2025-01-31T15:11:38Z</time>
      </trkpt>
      <trkpt lat="44.40346" lon="1.40152">
        <ele>178.4619140625</ele>
        <time>2025-01-31T15:11:41Z</time>
      </trkpt>
      <trkpt lat="44.40347" lon="1.40155">
        <ele>178.4619140625</ele>
        <time>2025-01-31T15:11:43Z</time>
      </trkpt>
      <trkpt lat="44.40355" lon="1.40176">
        <ele>177.98120117188</ele>
        <time>2025-01-31T15:11:58Z</time>
      </trkpt>
      <trkpt lat="44.40356" lon="1.4018">
        <ele>177.98120117188</ele>
        <time>2025-01-31T15:12:01Z</time>
      </trkpt>
      <trkpt lat="44.40359" lon="1.40193">
        <ele>177.98120117188</ele>
        <time>2025-01-31T15:12:10Z</time>
      </trkpt>
      <trkpt lat="44.40368" lon="1.40209">
        <ele>177.50061035156</ele>
        <time>2025-01-31T15:12:22Z</time>
      </trkpt>
      <trkpt lat="44.4037" lon="1.40216">
        <ele>177.02001953125</ele>
        <time>2025-01-31T15:12:28Z</time>
      </trkpt>
      <trkpt lat="44.40377" lon="1.40237">
        <ele>176.05859375</ele>
        <time>2025-01-31T15:12:44Z</time>
      </trkpt>
      <trkpt lat="44.40381" lon="1.4026">
        <ele>175.57788085938</ele>
        <time>2025-01-31T15:12:59Z</time>
      </trkpt>
      <trkpt lat="44.40386" lon="1.40281">
        <ele>175.57788085938</ele>
        <time>2025-01-31T15:13:14Z</time>
      </trkpt>
      <trkpt lat="44.40387" lon="1.40295">
        <ele>175.57788085938</ele>
        <time>2025-01-31T15:13:23Z</time>
      </trkpt>
      <trkpt lat="44.40395" lon="1.4031">
        <ele>175.57788085938</ele>
        <time>2025-01-31T15:13:34Z</time>
      </trkpt>
      <trkpt lat="44.404" lon="1.40318">
        <ele>175.09729003906</ele>
        <time>2025-01-31T15:13:41Z</time>
      </trkpt>
      <trkpt lat="44.40408" lon="1.4033">
        <ele>175.09729003906</ele>
        <time>2025-01-31T15:13:51Z</time>
      </trkpt>
      <trkpt lat="44.40418" lon="1.40348">
        <ele>174.61657714844</ele>
        <time>2025-01-31T15:14:05Z</time>
      </trkpt>
      <trkpt lat="44.40431" lon="1.40365">
        <ele>174.61657714844</ele>
        <time>2025-01-31T15:14:19Z</time>
      </trkpt>
      <trkpt lat="44.40448" lon="1.40384">
        <ele>174.13586425781</ele>
        <time>2025-01-31T15:14:36Z</time>
      </trkpt>
      <trkpt lat="44.40454" lon="1.40391">
        <ele>175.57788085938</ele>
        <time>2025-01-31T15:14:44Z</time>
      </trkpt>
      <trkpt lat="44.40463" lon="1.40403">
        <ele>176.05859375</ele>
        <time>2025-01-31T15:14:58Z</time>
      </trkpt>
      <trkpt lat="44.40472" lon="1.40412">
        <ele>174.13586425781</ele>
        <time>2025-01-31T15:15:08Z</time>
      </trkpt>
      <trkpt lat="44.40483" lon="1.40423">
        <ele>173.6552734375</ele>
        <time>2025-01-31T15:15:22Z</time>
      </trkpt>
      <trkpt lat="44.40491" lon="1.40428">
        <ele>175.09729003906</ele>
        <time>2025-01-31T15:15:37Z</time>
      </trkpt>
      <trkpt lat="44.40501" lon="1.40432">
        <ele>175.09729003906</ele>
        <time>2025-01-31T15:15:52Z</time>
      </trkpt>
      <trkpt lat="44.40519" lon="1.40437">
        <ele>173.17468261719</ele>
        <time>2025-01-31T15:16:11Z</time>
      </trkpt>
      <trkpt lat="44.40529" lon="1.40439">
        <ele>172.69396972656</ele>
        <time>2025-01-31T15:16:19Z</time>
      </trkpt>
      <trkpt lat="44.40538" lon="1.40443">
        <ele>172.69396972656</ele>
        <time>2025-01-31T15:16:28Z</time>
      </trkpt>
      <trkpt lat="44.40547" lon="1.40446">
        <ele>172.21325683594</ele>
        <time>2025-01-31T15:16:36Z</time>
      </trkpt>
      <trkpt lat="44.40574" lon="1.40446">
        <ele>172.21325683594</ele>
        <time>2025-01-31T15:16:58Z</time>
      </trkpt>
      <trkpt lat="44.40594" lon="1.40437">
        <ele>171.25207519531</ele>
        <time>2025-01-31T15:17:16Z</time>
      </trkpt>
      <trkpt lat="44.40612" lon="1.40434">
        <ele>170.29064941406</ele>
        <time>2025-01-31T15:17:33Z</time>
      </trkpt>
      <trkpt lat="44.40621" lon="1.4043">
        <ele>170.29064941406</ele>
        <time>2025-01-31T15:17:50Z</time>
      </trkpt>
      <trkpt lat="44.40629" lon="1.40444">
        <ele>169.81005859375</ele>
        <time>2025-01-31T15:18:03Z</time>
      </trkpt>
      <trkpt lat="44.40645" lon="1.40467">
        <ele>169.81005859375</ele>
        <time>2025-01-31T15:18:22Z</time>
      </trkpt>
      <trkpt lat="44.40649" lon="1.40477">
        <ele>170.77136230469</ele>
        <time>2025-01-31T15:18:30Z</time>
      </trkpt>
      <trkpt lat="44.40659" lon="1.40497">
        <ele>170.77136230469</ele>
        <time>2025-01-31T15:18:44Z</time>
      </trkpt>
      <trkpt lat="44.4066" lon="1.40505">
        <ele>171.73266601562</ele>
        <time>2025-01-31T15:18:50Z</time>
      </trkpt>
      <trkpt lat="44.40667" lon="1.40525">
        <ele>171.73266601562</ele>
        <time>2025-01-31T15:19:04Z</time>
      </trkpt>
      <trkpt lat="44.40684" lon="1.40542">
        <ele>171.73266601562</ele>
        <time>2025-01-31T15:19:21Z</time>
      </trkpt>
      <trkpt lat="44.40685" lon="1.40551">
        <ele>171.73266601562</ele>
        <time>2025-01-31T15:19:27Z</time>
      </trkpt>
      <trkpt lat="44.40688" lon="1.4056">
        <ele>171.73266601562</ele>
        <time>2025-01-31T15:19:33Z</time>
      </trkpt>
      <trkpt lat="44.40688" lon="1.40564">
        <ele>171.73266601562</ele>
        <time>2025-01-31T15:19:35Z</time>
      </trkpt>
      <trkpt lat="44.40691" lon="1.40571">
        <ele>170.29064941406</ele>
        <time>2025-01-31T15:19:40Z</time>
      </trkpt>
      <trkpt lat="44.40694" lon="1.40589">
        <ele>170.29064941406</ele>
        <time>2025-01-31T15:19:52Z</time>
      </trkpt>
      <trkpt lat="44.40698" lon="1.40612">
        <ele>170.29064941406</ele>
        <time>2025-01-31T15:20:07Z</time>
      </trkpt>
      <trkpt lat="44.40702" lon="1.40636">
        <ele>169.81005859375</ele>
        <time>2025-01-31T15:20:23Z</time>
      </trkpt>
      <trkpt lat="44.40707" lon="1.40654">
        <ele>168.84875488281</ele>
        <time>2025-01-31T15:20:36Z</time>
      </trkpt>
      <trkpt lat="44.4072" lon="1.40663">
        <ele>166.92602539062</ele>
        <time>2025-01-31T15:20:50Z</time>
      </trkpt>
      <trkpt lat="44.40722" lon="1.40667">
        <ele>166.4453125</ele>
        <time>2025-01-31T15:20:54Z</time>
      </trkpt>
      <trkpt lat="44.40727" lon="1.40679">
        <ele>166.4453125</ele>
        <time>2025-01-31T15:21:05Z</time>
      </trkpt>
      <trkpt lat="44.4073" lon="1.4069">
        <ele>166.4453125</ele>
        <time>2025-01-31T15:21:12Z</time>
      </trkpt>
      <trkpt lat="44.40736" lon="1.40703">
        <ele>166.4453125</ele>
        <time>2025-01-31T15:21:21Z</time>
      </trkpt>
      <trkpt lat="44.40744" lon="1.40716">
        <ele>165.96472167969</ele>
        <time>2025-01-31T15:21:31Z</time>
      </trkpt>
      <trkpt lat="44.40748" lon="1.4073">
        <ele>165.48413085938</ele>
        <time>2025-01-31T15:21:40Z</time>
      </trkpt>
      <trkpt lat="44.40758" lon="1.40757">
        <ele>165.00341796875</ele>
        <time>2025-01-31T15:21:59Z</time>
      </trkpt>
      <trkpt lat="44.40766" lon="1.40779">
        <ele>164.04211425781</ele>
        <time>2025-01-31T15:22:14Z</time>
      </trkpt>
      <trkpt lat="44.40772" lon="1.40794">
        <ele>164.04211425781</ele>
        <time>2025-01-31T15:22:24Z</time>
      </trkpt>
      <trkpt lat="44.40775" lon="1.408">
        <ele>164.04211425781</ele>
        <time>2025-01-31T15:22:28Z</time>
      </trkpt>
      <trkpt lat="44.4078" lon="1.40813">
        <ele>163.5615234375</ele>
        <time>2025-01-31T15:22:38Z</time>
      </trkpt>
      <trkpt lat="44.40782" lon="1.40817">
        <ele>163.5615234375</ele>
        <time>2025-01-31T15:22:41Z</time>
      </trkpt>
      <trkpt lat="44.40786" lon="1.40826">
        <ele>163.5615234375</ele>
        <time>2025-01-31T15:22:48Z</time>
      </trkpt>
      <trkpt lat="44.40795" lon="1.40847">
        <ele>163.5615234375</ele>
        <time>2025-01-31T15:23:02Z</time>
      </trkpt>
      <trkpt lat="44.40803" lon="1.4087">
        <ele>163.08081054688</ele>
        <time>2025-01-31T15:23:18Z</time>
      </trkpt>
      <trkpt lat="44.40809" lon="1.40892">
        <ele>163.08081054688</ele>
        <time>2025-01-31T15:23:34Z</time>
      </trkpt>
      <trkpt lat="44.40819" lon="1.40916">
        <ele>163.08081054688</ele>
        <time>2025-01-31T15:23:51Z</time>
      </trkpt>
      <trkpt lat="44.40825" lon="1.40926">
        <ele>163.08081054688</ele>
        <time>2025-01-31T15:23:59Z</time>
      </trkpt>
      <trkpt lat="44.40831" lon="1.40932">
        <ele>163.08081054688</ele>
        <time>2025-01-31T15:24:05Z</time>
      </trkpt>
      <trkpt lat="44.40847" lon="1.40946">
        <ele>162.60009765625</ele>
        <time>2025-01-31T15:24:22Z</time>
      </trkpt>
      <trkpt lat="44.40852" lon="1.40952">
        <ele>162.60009765625</ele>
        <time>2025-01-31T15:24:27Z</time>
      </trkpt>
      <trkpt lat="44.4086" lon="1.40972">
        <ele>162.11950683594</ele>
        <time>2025-01-31T15:24:42Z</time>
      </trkpt>
      <trkpt lat="44.40861" lon="1.4098">
        <ele>162.11950683594</ele>
        <time>2025-01-31T15:24:48Z</time>
      </trkpt>
      <trkpt lat="44.40864" lon="1.40995">
        <ele>162.11950683594</ele>
        <time>2025-01-31T15:24:59Z</time>
      </trkpt>
      <trkpt lat="44.40874" lon="1.41017">
        <ele>162.11950683594</ele>
        <time>2025-01-31T15:25:16Z</time>
      </trkpt>
      <trkpt lat="44.4088" lon="1.41038">
        <ele>162.11950683594</ele>
        <time>2025-01-31T15:25:30Z</time>
      </trkpt>
      <trkpt lat="44.40881" lon="1.41039">
        <ele>162.11950683594</ele>
        <time>2025-01-31T15:25:31Z</time>
      </trkpt>
      <trkpt lat="44.40885" lon="1.41054">
        <ele>161.63891601562</ele>
        <time>2025-01-31T15:25:41Z</time>
      </trkpt>
      <trkpt lat="44.40895" lon="1.41084">
        <ele>160.67749023438</ele>
        <time>2025-01-31T15:26:01Z</time>
      </trkpt>
      <trkpt lat="44.40899" lon="1.41094">
        <ele>160.67749023438</ele>
        <time>2025-01-31T15:26:14Z</time>
      </trkpt>
      <trkpt lat="44.40898" lon="1.41093">
        <ele>160.19689941406</ele>
        <time>2025-01-31T15:26:33Z</time>
      </trkpt>
      <trkpt lat="44.40898" lon="1.41094">
        <ele>159.71618652344</ele>
        <time>2025-01-31T15:26:44Z</time>
      </trkpt>
      <trkpt lat="44.40898" lon="1.41093">
        <ele>159.71618652344</ele>
        <time>2025-01-31T15:27:28Z</time>
      </trkpt>
      <trkpt lat="44.409" lon="1.41091">
        <ele>159.23547363281</ele>
        <time>2025-01-31T15:28:16Z</time>
      </trkpt>
      <trkpt lat="44.409" lon="1.41093">
        <ele>159.23547363281</ele>
        <time>2025-01-31T15:28:58Z</time>
      </trkpt>
      <trkpt lat="44.40901" lon="1.41094">
        <ele>159.23547363281</ele>
        <time>2025-01-31T15:29:18Z</time>
      </trkpt>
      <trkpt lat="44.40901" lon="1.41094">
        <ele>159.23547363281</ele>
        <time>2025-01-31T15:29:53Z</time>
      </trkpt>
      <trkpt lat="44.40899" lon="1.41096">
        <ele>159.23547363281</ele>
        <time>2025-01-31T15:30:45Z</time>
      </trkpt>
      <trkpt lat="44.40901" lon="1.41095">
        <ele>159.23547363281</ele>
        <time>2025-01-31T15:31:27Z</time>
      </trkpt>
      <trkpt lat="44.40899" lon="1.41094">
        <ele>159.23547363281</ele>
        <time>2025-01-31T15:32:11Z</time>
      </trkpt>
      <trkpt lat="44.40899" lon="1.41093">
        <ele>159.23547363281</ele>
        <time>2025-01-31T15:32:29Z</time>
      </trkpt>
      <trkpt lat="44.409" lon="1.41091">
        <ele>159.23547363281</ele>
        <time>2025-01-31T15:32:33Z</time>
      </trkpt>
      <trkpt lat="44.40902" lon="1.4109">
        <ele>159.23547363281</ele>
        <time>2025-01-31T15:32:38Z</time>
      </trkpt>
      <trkpt lat="44.4091" lon="1.41088">
        <ele>159.23547363281</ele>
        <time>2025-01-31T15:32:49Z</time>
      </trkpt>
      <trkpt lat="44.4092" lon="1.41084">
        <ele>159.23547363281</ele>
        <time>2025-01-31T15:33:02Z</time>
      </trkpt>
      <trkpt lat="44.40923" lon="1.41082">
        <ele>159.23547363281</ele>
        <time>2025-01-31T15:33:11Z</time>
      </trkpt>
      <trkpt lat="44.40934" lon="1.41077">
        <ele>159.23547363281</ele>
        <time>2025-01-31T15:33:28Z</time>
      </trkpt>
      <trkpt lat="44.40948" lon="1.41071">
        <ele>159.23547363281</ele>
        <time>2025-01-31T15:33:43Z</time>
      </trkpt>
      <trkpt lat="44.40959" lon="1.41069">
        <ele>162.11950683594</ele>
        <time>2025-01-31T15:34:00Z</time>
      </trkpt>
      <trkpt lat="44.40971" lon="1.41066">
        <ele>163.08081054688</ele>
        <time>2025-01-31T15:34:13Z</time>
      </trkpt>
      <trkpt lat="44.40975" lon="1.41064">
        <ele>163.08081054688</ele>
        <time>2025-01-31T15:34:17Z</time>
      </trkpt>
      <trkpt lat="44.4099" lon="1.41051">
        <ele>163.08081054688</ele>
        <time>2025-01-31T15:34:35Z</time>
      </trkpt>
      <trkpt lat="44.41003" lon="1.41045">
        <ele>164.04211425781</ele>
        <time>2025-01-31T15:34:51Z</time>
      </trkpt>
      <trkpt lat="44.4101" lon="1.41038">
        <ele>164.52270507812</ele>
        <time>2025-01-31T15:35:05Z</time>
      </trkpt>
      <trkpt lat="44.4102" lon="1.41024">
        <ele>165.48413085938</ele>
        <time>2025-01-31T15:35:19Z</time>
      </trkpt>
      <trkpt lat="44.41031" lon="1.41005">
        <ele>166.4453125</ele>
        <time>2025-01-31T15:35:34Z</time>
      </trkpt>
      <trkpt lat="44.41044" lon="1.40984">
        <ele>167.88732910156</ele>
        <time>2025-01-31T15:35:52Z</time>
      </trkpt>
      <trkpt lat="44.41056" lon="1.40968">
        <ele>168.36804199219</ele>
        <time>2025-01-31T15:36:07Z</time>
      </trkpt>
      <trkpt lat="44.41061" lon="1.40963">
        <ele>168.84875488281</ele>
        <time>2025-01-31T15:36:13Z</time>
      </trkpt>
      <trkpt lat="44.41072" lon="1.40947">
        <ele>169.81005859375</ele>
        <time>2025-01-31T15:36:28Z</time>
      </trkpt>
      <trkpt lat="44.41082" lon="1.40937">
        <ele>170.77136230469</ele>
        <time>2025-01-31T15:36:39Z</time>
      </trkpt>
      <trkpt lat="44.41083" lon="1.40935">
        <ele>170.77136230469</ele>
        <time>2025-01-31T15:36:41Z</time>
      </trkpt>
      <trkpt lat="44.41096" lon="1.40923">
        <ele>171.73266601562</ele>
        <time>2025-01-31T15:36:56Z</time>
      </trkpt>
      <trkpt lat="44.41103" lon="1.40918">
        <ele>172.21325683594</ele>
        <time>2025-01-31T15:37:05Z</time>
      </trkpt>
      <trkpt lat="44.41117" lon="1.40908">
        <ele>173.6552734375</ele>
        <time>2025-01-31T15:37:21Z</time>
      </trkpt>
      <trkpt lat="44.4113" lon="1.40894">
        <ele>174.61657714844</ele>
        <time>2025-01-31T15:37:37Z</time>
      </trkpt>
      <trkpt lat="44.41146" lon="1.40885">
        <ele>176.05859375</ele>
        <time>2025-01-31T15:37:55Z</time>
      </trkpt>
      <trkpt lat="44.41158" lon="1.40879">
        <ele>177.50061035156</ele>
        <time>2025-01-31T15:38:10Z</time>
      </trkpt>
      <trkpt lat="44.41172" lon="1.4087">
        <ele>178.94262695312</ele>
        <time>2025-01-31T15:38:26Z</time>
      </trkpt>
      <trkpt lat="44.41188" lon="1.40857">
        <ele>179.90380859375</ele>
        <time>2025-01-31T15:38:45Z</time>
      </trkpt>
      <trkpt lat="44.41198" lon="1.40847">
        <ele>181.34582519531</ele>
        <time>2025-01-31T15:38:59Z</time>
      </trkpt>
      <trkpt lat="44.41213" lon="1.40834">
        <ele>181.82641601562</ele>
        <time>2025-01-31T15:39:16Z</time>
      </trkpt>
      <trkpt lat="44.41225" lon="1.40824">
        <ele>182.30712890625</ele>
        <time>2025-01-31T15:39:31Z</time>
      </trkpt>
      <trkpt lat="44.41245" lon="1.40821">
        <ele>183.26843261719</ele>
        <time>2025-01-31T15:39:47Z</time>
      </trkpt>
      <trkpt lat="44.41259" lon="1.40813">
        <ele>184.71057128906</ele>
        <time>2025-01-31T15:40:04Z</time>
      </trkpt>
      <trkpt lat="44.41265" lon="1.40801">
        <ele>185.19116210938</ele>
        <time>2025-01-31T15:40:14Z</time>
      </trkpt>
      <trkpt lat="44.41276" lon="1.40783">
        <ele>186.63317871094</ele>
        <time>2025-01-31T15:40:32Z</time>
      </trkpt>
      <trkpt lat="44.41281" lon="1.40764">
        <ele>188.07507324219</ele>
        <time>2025-01-31T15:40:48Z</time>
      </trkpt>
      <trkpt lat="44.41281" lon="1.40763">
        <ele>188.07507324219</ele>
        <time>2025-01-31T15:40:49Z</time>
      </trkpt>
      <trkpt lat="44.41274" lon="1.40739">
        <ele>188.07507324219</ele>
        <time>2025-01-31T15:41:04Z</time>
      </trkpt>
      <trkpt lat="44.41277" lon="1.40729">
        <ele>188.55578613281</ele>
        <time>2025-01-31T15:41:19Z</time>
      </trkpt>
      <trkpt lat="44.41278" lon="1.40726">
        <ele>189.03637695312</ele>
        <time>2025-01-31T15:41:35Z</time>
      </trkpt>
      <trkpt lat="44.41287" lon="1.40726">
        <ele>192.40112304688</ele>
        <time>2025-01-31T15:41:49Z</time>
      </trkpt>
      <trkpt lat="44.41294" lon="1.4073">
        <ele>193.3623046875</ele>
        <time>2025-01-31T15:42:04Z</time>
      </trkpt>
      <trkpt lat="44.41291" lon="1.40726">
        <ele>194.32373046875</ele>
        <time>2025-01-31T15:42:20Z</time>
      </trkpt>
      <trkpt lat="44.41294" lon="1.40729">
        <ele>194.32373046875</ele>
        <time>2025-01-31T15:42:42Z</time>
      </trkpt>
      <trkpt lat="44.413" lon="1.40735">
        <ele>194.32373046875</ele>
        <time>2025-01-31T15:42:51Z</time>
      </trkpt>
      <trkpt lat="44.41311" lon="1.40738">
        <ele>197.20751953125</ele>
        <time>2025-01-31T15:43:06Z</time>
      </trkpt>
      <trkpt lat="44.41316" lon="1.40729">
        <ele>200.572265625</ele>
        <time>2025-01-31T15:43:21Z</time>
      </trkpt>
      <trkpt lat="44.41314" lon="1.40711">
        <ele>202.97546386719</ele>
        <time>2025-01-31T15:43:37Z</time>
      </trkpt>
      <trkpt lat="44.41311" lon="1.40697">
        <ele>205.85949707031</ele>
        <time>2025-01-31T15:43:53Z</time>
      </trkpt>
      <trkpt lat="44.41321" lon="1.40695">
        <ele>207.78210449219</ele>
        <time>2025-01-31T15:44:08Z</time>
      </trkpt>
      <trkpt lat="44.41329" lon="1.40707">
        <ele>210.18542480469</ele>
        <time>2025-01-31T15:44:23Z</time>
      </trkpt>
      <trkpt lat="44.41341" lon="1.4072">
        <ele>212.10803222656</ele>
        <time>2025-01-31T15:44:40Z</time>
      </trkpt>
      <trkpt lat="44.41345" lon="1.40734">
        <ele>215.47265625</ele>
        <time>2025-01-31T15:44:57Z</time>
      </trkpt>
      <trkpt lat="44.41353" lon="1.40741">
        <ele>217.8759765625</ele>
        <time>2025-01-31T15:45:13Z</time>
      </trkpt>
      <trkpt lat="44.41358" lon="1.40739">
        <ele>218.83728027344</ele>
        <time>2025-01-31T15:45:27Z</time>
      </trkpt>
      <trkpt lat="44.41358" lon="1.40725">
        <ele>221.24060058594</ele>
        <time>2025-01-31T15:45:42Z</time>
      </trkpt>
      <trkpt lat="44.4136" lon="1.40714">
        <ele>223.64379882812</ele>
        <time>2025-01-31T15:45:54Z</time>
      </trkpt>
      <trkpt lat="44.41362" lon="1.407">
        <ele>226.04711914062</ele>
        <time>2025-01-31T15:46:10Z</time>
      </trkpt>
      <trkpt lat="44.41368" lon="1.4069">
        <ele>227.9697265625</ele>
        <time>2025-01-31T15:46:27Z</time>
      </trkpt>
      <trkpt lat="44.41376" lon="1.40685">
        <ele>229.41174316406</ele>
        <time>2025-01-31T15:46:42Z</time>
      </trkpt>
      <trkpt lat="44.41385" lon="1.40682">
        <ele>231.81494140625</ele>
        <time>2025-01-31T15:47:00Z</time>
      </trkpt>
      <trkpt lat="44.41388" lon="1.40683">
        <ele>232.29577636719</ele>
        <time>2025-01-31T15:47:18Z</time>
      </trkpt>
      <trkpt lat="44.41386" lon="1.40696">
        <ele>232.29577636719</ele>
        <time>2025-01-31T15:47:33Z</time>
      </trkpt>
      <trkpt lat="44.41385" lon="1.40704">
        <ele>230.85375976562</ele>
        <time>2025-01-31T15:47:40Z</time>
      </trkpt>
      <trkpt lat="44.41384" lon="1.40724">
        <ele>229.89233398438</ele>
        <time>2025-01-31T15:47:57Z</time>
      </trkpt>
      <trkpt lat="44.41381" lon="1.40745">
        <ele>228.93115234375</ele>
        <time>2025-01-31T15:48:12Z</time>
      </trkpt>
      <trkpt lat="44.41382" lon="1.40753">
        <ele>228.93115234375</ele>
        <time>2025-01-31T15:48:18Z</time>
      </trkpt>
      <trkpt lat="44.41378" lon="1.40778">
        <ele>227.00854492188</ele>
        <time>2025-01-31T15:48:37Z</time>
      </trkpt>
      <trkpt lat="44.41376" lon="1.40799">
        <ele>226.04711914062</ele>
        <time>2025-01-31T15:48:51Z</time>
      </trkpt>
      <trkpt lat="44.41374" lon="1.40821">
        <ele>225.56652832031</ele>
        <time>2025-01-31T15:49:06Z</time>
      </trkpt>
      <trkpt lat="44.41374" lon="1.40844">
        <ele>224.60522460938</ele>
        <time>2025-01-31T15:49:23Z</time>
      </trkpt>
      <trkpt lat="44.41374" lon="1.40859">
        <ele>223.16320800781</ele>
        <time>2025-01-31T15:49:37Z</time>
      </trkpt>
      <trkpt lat="44.41368" lon="1.40865">
        <ele>221.72119140625</ele>
        <time>2025-01-31T15:49:50Z</time>
      </trkpt>
      <trkpt lat="44.41359" lon="1.40873">
        <ele>220.75988769531</ele>
        <time>2025-01-31T15:50:08Z</time>
      </trkpt>
      <trkpt lat="44.41349" lon="1.40881">
        <ele>219.79858398438</ele>
        <time>2025-01-31T15:50:22Z</time>
      </trkpt>
      <trkpt lat="44.41336" lon="1.40896">
        <ele>219.31799316406</ele>
        <time>2025-01-31T15:50:40Z</time>
      </trkpt>
      <trkpt lat="44.41325" lon="1.40913">
        <ele>219.31799316406</ele>
        <time>2025-01-31T15:50:57Z</time>
      </trkpt>
      <trkpt lat="44.41318" lon="1.40923">
        <ele>219.31799316406</ele>
        <time>2025-01-31T15:51:10Z</time>
      </trkpt>
      <trkpt lat="44.41307" lon="1.40943">
        <ele>219.31799316406</ele>
        <time>2025-01-31T15:51:26Z</time>
      </trkpt>
      <trkpt lat="44.413" lon="1.40963">
        <ele>219.31799316406</ele>
        <time>2025-01-31T15:51:42Z</time>
      </trkpt>
      <trkpt lat="44.41304" lon="1.40985">
        <ele>220.75988769531</ele>
        <time>2025-01-31T15:51:58Z</time>
      </trkpt>
      <trkpt lat="44.41305" lon="1.4099">
        <ele>220.75988769531</ele>
        <time>2025-01-31T15:52:02Z</time>
      </trkpt>
      <trkpt lat="44.41307" lon="1.40998">
        <ele>220.75988769531</ele>
        <time>2025-01-31T15:52:09Z</time>
      </trkpt>
      <trkpt lat="44.41319" lon="1.41011">
        <ele>219.31799316406</ele>
        <time>2025-01-31T15:52:24Z</time>
      </trkpt>
      <trkpt lat="44.41328" lon="1.41019">
        <ele>218.83728027344</ele>
        <time>2025-01-31T15:52:33Z</time>
      </trkpt>
      <trkpt lat="44.41328" lon="1.41035">
        <ele>218.35656738281</ele>
        <time>2025-01-31T15:52:45Z</time>
      </trkpt>
      <trkpt lat="44.41318" lon="1.41062">
        <ele>218.35656738281</ele>
        <time>2025-01-31T15:53:05Z</time>
      </trkpt>
      <trkpt lat="44.41312" lon="1.41088">
        <ele>219.79858398438</ele>
        <time>2025-01-31T15:53:23Z</time>
      </trkpt>
      <trkpt lat="44.41306" lon="1.41114">
        <ele>219.79858398438</ele>
        <time>2025-01-31T15:53:41Z</time>
      </trkpt>
      <trkpt lat="44.41303" lon="1.41142">
        <ele>219.79858398438</ele>
        <time>2025-01-31T15:54:00Z</time>
      </trkpt>
      <trkpt lat="44.41299" lon="1.41163">
        <ele>219.79858398438</ele>
        <time>2025-01-31T15:54:17Z</time>
      </trkpt>
      <trkpt lat="44.41298" lon="1.4119">
        <ele>220.27917480469</ele>
        <time>2025-01-31T15:54:32Z</time>
      </trkpt>
      <trkpt lat="44.41297" lon="1.41216">
        <ele>221.72119140625</ele>
        <time>2025-01-31T15:54:48Z</time>
      </trkpt>
      <trkpt lat="44.41295" lon="1.41242">
        <ele>223.16320800781</ele>
        <time>2025-01-31T15:55:06Z</time>
      </trkpt>
      <trkpt lat="44.41294" lon="1.41268">
        <ele>224.60522460938</ele>
        <time>2025-01-31T15:55:25Z</time>
      </trkpt>
      <trkpt lat="44.41294" lon="1.41291">
        <ele>225.0859375</ele>
        <time>2025-01-31T15:55:40Z</time>
      </trkpt>
      <trkpt lat="44.41293" lon="1.41317">
        <ele>225.56652832031</ele>
        <time>2025-01-31T15:55:58Z</time>
      </trkpt>
      <trkpt lat="44.41293" lon="1.4135">
        <ele>227.00854492188</ele>
        <time>2025-01-31T15:56:18Z</time>
      </trkpt>
      <trkpt lat="44.41293" lon="1.41375">
        <ele>227.9697265625</ele>
        <time>2025-01-31T15:56:34Z</time>
      </trkpt>
      <trkpt lat="44.41294" lon="1.41401">
        <ele>229.89233398438</ele>
        <time>2025-01-31T15:56:54Z</time>
      </trkpt>
      <trkpt lat="44.41301" lon="1.41425">
        <ele>231.33435058594</ele>
        <time>2025-01-31T15:57:12Z</time>
      </trkpt>
      <trkpt lat="44.41312" lon="1.41449">
        <ele>230.85375976562</ele>
        <time>2025-01-31T15:57:29Z</time>
      </trkpt>
      <trkpt lat="44.41314" lon="1.41452">
        <ele>230.85375976562</ele>
        <time>2025-01-31T15:57:32Z</time>
      </trkpt>
      <trkpt lat="44.41317" lon="1.41454">
        <ele>230.85375976562</ele>
        <time>2025-01-31T15:57:35Z</time>
      </trkpt>
      <trkpt lat="44.41323" lon="1.41464">
        <ele>230.85375976562</ele>
        <time>2025-01-31T15:57:44Z</time>
      </trkpt>
      <trkpt lat="44.41331" lon="1.4147">
        <ele>229.41174316406</ele>
        <time>2025-01-31T15:57:54Z</time>
      </trkpt>
      <trkpt lat="44.41337" lon="1.41491">
        <ele>227.48913574219</ele>
        <time>2025-01-31T15:58:11Z</time>
      </trkpt>
      <trkpt lat="44.41344" lon="1.41516">
        <ele>226.04711914062</ele>
        <time>2025-01-31T15:58:26Z</time>
      </trkpt>
      <trkpt lat="44.41349" lon="1.41536">
        <ele>224.12451171875</ele>
        <time>2025-01-31T15:58:42Z</time>
      </trkpt>
      <trkpt lat="44.41354" lon="1.41552">
        <ele>223.16320800781</ele>
        <time>2025-01-31T15:58:56Z</time>
      </trkpt>
      <trkpt lat="44.41359" lon="1.41564">
        <ele>222.20178222656</ele>
        <time>2025-01-31T15:59:05Z</time>
      </trkpt>
      <trkpt lat="44.41366" lon="1.41584">
        <ele>220.27917480469</ele>
        <time>2025-01-31T15:59:21Z</time>
      </trkpt>
      <trkpt lat="44.41372" lon="1.41597">
        <ele>219.79858398438</ele>
        <time>2025-01-31T15:59:37Z</time>
      </trkpt>
      <trkpt lat="44.41379" lon="1.41615">
        <ele>217.8759765625</ele>
        <time>2025-01-31T15:59:53Z</time>
      </trkpt>
      <trkpt lat="44.41388" lon="1.41637">
        <ele>216.43395996094</ele>
        <time>2025-01-31T16:00:12Z</time>
      </trkpt>
      <trkpt lat="44.41397" lon="1.4166">
        <ele>216.43395996094</ele>
        <time>2025-01-31T16:00:29Z</time>
      </trkpt>
      <trkpt lat="44.41408" lon="1.41682">
        <ele>215.47265625</ele>
        <time>2025-01-31T16:00:47Z</time>
      </trkpt>
      <trkpt lat="44.41412" lon="1.41701">
        <ele>214.99194335938</ele>
        <time>2025-01-31T16:01:02Z</time>
      </trkpt>
      <trkpt lat="44.41411" lon="1.4172">
        <ele>214.99194335938</ele>
        <time>2025-01-31T16:01:18Z</time>
      </trkpt>
      <trkpt lat="44.41409" lon="1.41743">
        <ele>214.99194335938</ele>
        <time>2025-01-31T16:01:34Z</time>
      </trkpt>
      <trkpt lat="44.41415" lon="1.41761">
        <ele>214.99194335938</ele>
        <time>2025-01-31T16:01:51Z</time>
      </trkpt>
      <trkpt lat="44.41427" lon="1.41759">
        <ele>212.58862304688</ele>
        <time>2025-01-31T16:02:05Z</time>
      </trkpt>
      <trkpt lat="44.41439" lon="1.41757">
        <ele>211.14672851562</ele>
        <time>2025-01-31T16:02:20Z</time>
      </trkpt>
      <trkpt lat="44.41452" lon="1.41756">
        <ele>210.18542480469</ele>
        <time>2025-01-31T16:02:37Z</time>
      </trkpt>
      <trkpt lat="44.41456" lon="1.41756">
        <ele>209.22412109375</ele>
        <time>2025-01-31T16:02:50Z</time>
      </trkpt>
      <trkpt lat="44.41472" lon="1.4176">
        <ele>207.78210449219</ele>
        <time>2025-01-31T16:03:07Z</time>
      </trkpt>
      <trkpt lat="44.41488" lon="1.41768">
        <ele>207.30139160156</ele>
        <time>2025-01-31T16:03:24Z</time>
      </trkpt>
      <trkpt lat="44.41499" lon="1.41784">
        <ele>206.82067871094</ele>
        <time>2025-01-31T16:03:39Z</time>
      </trkpt>
      <trkpt lat="44.41504" lon="1.41792">
        <ele>205.85949707031</ele>
        <time>2025-01-31T16:03:52Z</time>
      </trkpt>
      <trkpt lat="44.41504" lon="1.41793">
        <ele>205.85949707031</ele>
        <time>2025-01-31T16:03:53Z</time>
      </trkpt>
      <trkpt lat="44.41516" lon="1.41801">
        <ele>205.37878417969</ele>
        <time>2025-01-31T16:04:09Z</time>
      </trkpt>
      <trkpt lat="44.41524" lon="1.41809">
        <ele>205.37878417969</ele>
        <time>2025-01-31T16:04:23Z</time>
      </trkpt>
      <trkpt lat="44.41533" lon="1.41821">
        <ele>204.89807128906</ele>
        <time>2025-01-31T16:04:42Z</time>
      </trkpt>
      <trkpt lat="44.41536" lon="1.41822">
        <ele>204.89807128906</ele>
        <time>2025-01-31T16:04:59Z</time>
      </trkpt>
      <trkpt lat="44.41542" lon="1.41835">
        <ele>204.89807128906</ele>
        <time>2025-01-31T16:05:14Z</time>
      </trkpt>
      <trkpt lat="44.41554" lon="1.41843">
        <ele>204.89807128906</ele>
        <time>2025-01-31T16:05:31Z</time>
      </trkpt>
      <trkpt lat="44.41561" lon="1.41848">
        <ele>204.89807128906</ele>
        <time>2025-01-31T16:05:50Z</time>
      </trkpt>
      <trkpt lat="44.4156" lon="1.41847">
        <ele>206.34008789062</ele>
        <time>2025-01-31T16:06:01Z</time>
      </trkpt>
      <trkpt lat="44.4156" lon="1.41847">
        <ele>206.82067871094</ele>
        <time>2025-01-31T16:06:25Z</time>
      </trkpt>
    </trkseg>
  </trk>
</gpx>